2016 Cux-Wetter.de -Die Nutzung der Wetterdaten nur mit ausdrcklicher Genehmigung
Wetterdaten: Samstag, 22.12.2018
Datum Zeit Temp. A. Feuchte A. Luftdruck Regen Wind Richtung Richtung Sonnenschein Solar Taupunkt Windchill Windben
22.12.2018 00:00 6,7 C 97 % 998,2 hPa 0,0 l/m 21,7 km/h (4 Bft) NW 321 0 min 0 W/m 6,3 C -1,6 C 33,8 km/h (5 Bft)
22.12.2018 00:03 6,7 C 97 % 998,2 hPa 0,0 l/m 19,4 km/h (3 Bft) SW 226 0 min 0 W/m 6,3 C -0,7 C 32,2 km/h (5 Bft)
22.12.2018 00:06 6,8 C 96 % 998,3 hPa 0,0 l/m 16,1 km/h (3 Bft) W 270 0 min 0 W/m 6,2 C 0,7 C 25,7 km/h (4 Bft)
22.12.2018 00:09 6,8 C 96 % 998,3 hPa 0,0 l/m 19,6 km/h (3 Bft) W 265 0 min 0 W/m 6,2 C -0,7 C 32,2 km/h (5 Bft)
22.12.2018 00:12 6,8 C 96 % 998,4 hPa 0,0 l/m 16,2 km/h (3 Bft) W 270 0 min 0 W/m 6,2 C 0,7 C 25,7 km/h (4 Bft)
22.12.2018 00:15 6,8 C 96 % 998,4 hPa 0,0 l/m 16,6 km/h (3 Bft) SW 232 0 min 0 W/m 6,2 C 0,5 C 27,4 km/h (5 Bft)
22.12.2018 00:18 6,8 C 96 % 998,5 hPa 0,0 l/m 14,8 km/h (3 Bft) W 266 0 min 0 W/m 6,2 C 1,4 C 25,7 km/h (4 Bft)
22.12.2018 00:21 6,8 C 96 % 998,5 hPa 0,0 l/m 15,4 km/h (3 Bft) W 272 0 min 0 W/m 6,2 C 1,1 C 40,2 km/h (6 Bft)
22.12.2018 00:24 6,8 C 96 % 998,5 hPa 0,0 l/m 17,0 km/h (3 Bft) W 263 0 min 0 W/m 6,2 C 0,3 C 29,0 km/h (5 Bft)
22.12.2018 00:27 6,8 C 96 % 998,6 hPa 0,0 l/m 18,0 km/h (3 Bft) W-NW 295 0 min 0 W/m 6,2 C -0,1 C 27,4 km/h (5 Bft)
22.12.2018 00:30 6,8 C 96 % 998,6 hPa 0,0 l/m 18,6 km/h (3 Bft) W 265 0 min 0 W/m 6,2 C -0,3 C 35,4 km/h (5 Bft)
22.12.2018 00:33 6,8 C 96 % 998,7 hPa 0,0 l/m 18,5 km/h (3 Bft) W-SW 250 0 min 0 W/m 6,2 C -0,3 C 29,0 km/h (5 Bft)
22.12.2018 00:36 6,8 C 96 % 998,8 hPa 0,0 l/m 18,5 km/h (3 Bft) S-SW 213 0 min 0 W/m 6,2 C -0,3 C 35,4 km/h (5 Bft)
22.12.2018 00:39 6,8 C 96 % 998,9 hPa 0,0 l/m 17,1 km/h (3 Bft) W 263 0 min 0 W/m 6,2 C 0,3 C 29,0 km/h (5 Bft)
22.12.2018 00:42 6,8 C 96 % 998,9 hPa 0,0 l/m 15,7 km/h (3 Bft) W 261 0 min 0 W/m 6,2 C 0,9 C 27,4 km/h (5 Bft)
22.12.2018 00:45 6,8 C 96 % 999,0 hPa 0,0 l/m 13,9 km/h (3 Bft) W-SW 237 0 min 0 W/m 6,2 C 1,8 C 30,6 km/h (5 Bft)
22.12.2018 00:48 6,9 C 96 % 999,1 hPa 0,0 l/m 16,9 km/h (3 Bft) W 264 0 min 0 W/m 6,3 C 0,5 C 29,0 km/h (5 Bft)
22.12.2018 00:51 6,9 C 96 % 999,1 hPa 0,0 l/m 15,4 km/h (3 Bft) W 270 0 min 0 W/m 6,3 C 1,2 C 27,4 km/h (5 Bft)
22.12.2018 00:54 6,8 C 96 % 999,2 hPa 0,0 l/m 16,9 km/h (3 Bft) W 261 0 min 0 W/m 6,2 C 0,4 C 29,0 km/h (5 Bft)
22.12.2018 00:57 6,8 C 96 % 999,2 hPa 0,0 l/m 13,8 km/h (3 Bft) W-SW 257 0 min 0 W/m 6,2 C 1,9 C 22,5 km/h (4 Bft)
22.12.2018 01:00 6,8 C 96 % 999,3 hPa 0,0 l/m 16,4 km/h (3 Bft) W-NW 288 0 min 0 W/m 6,2 C 0,6 C 32,2 km/h (5 Bft)
22.12.2018 01:03 6,8 C 96 % 999,3 hPa 0,0 l/m 15,2 km/h (3 Bft) S-SW 200 0 min 0 W/m 6,2 C 1,2 C 29,0 km/h (5 Bft)
22.12.2018 01:06 6,8 C 96 % 999,3 hPa 0,0 l/m 12,6 km/h (3 Bft) W 269 0 min 0 W/m 6,2 C 2,5 C 24,1 km/h (4 Bft)
22.12.2018 01:09 6,8 C 96 % 999,3 hPa 0,0 l/m 11,7 km/h (2 Bft) W 261 0 min 0 W/m 6,2 C 3,0 C 19,3 km/h (3 Bft)
22.12.2018 01:12 6,8 C 96 % 999,4 hPa 0,0 l/m 15,6 km/h (3 Bft) W 266 0 min 0 W/m 6,2 C 1,0 C 29,0 km/h (5 Bft)
22.12.2018 01:15 6,8 C 96 % 999,5 hPa 0,0 l/m 15,7 km/h (3 Bft) W 273 0 min 0 W/m 6,2 C 0,9 C 24,1 km/h (4 Bft)
22.12.2018 01:18 6,8 C 96 % 999,5 hPa 0,0 l/m 17,8 km/h (3 Bft) W-NW 292 0 min 0 W/m 6,2 C 0,0 C 29,0 km/h (5 Bft)
22.12.2018 01:21 6,8 C 96 % 999,6 hPa 0,0 l/m 18,7 km/h (3 Bft) W 277 0 min 0 W/m 6,2 C -0,3 C 32,2 km/h (5 Bft)
22.12.2018 01:24 6,8 C 96 % 999,6 hPa 0,0 l/m 16,7 km/h (3 Bft) W-SW 257 0 min 0 W/m 6,2 C 0,5 C 27,4 km/h (5 Bft)
22.12.2018 01:27 6,9 C 96 % 999,7 hPa 0,0 l/m 20,5 km/h (4 Bft) W 275 0 min 0 W/m 6,3 C -0,9 C 35,4 km/h (5 Bft)
22.12.2018 01:30 6,9 C 96 % 999,8 hPa 0,0 l/m 16,2 km/h (3 Bft) W 260 0 min 0 W/m 6,3 C 0,8 C 27,4 km/h (5 Bft)
22.12.2018 01:33 6,8 C 96 % 999,8 hPa 0,0 l/m 15,2 km/h (3 Bft) W-NW 290 0 min 0 W/m 6,2 C 1,2 C 24,1 km/h (4 Bft)
22.12.2018 01:36 6,8 C 96 % 999,8 hPa 0,0 l/m 15,4 km/h (3 Bft) SW 230 0 min 0 W/m 6,2 C 1,1 C 24,1 km/h (4 Bft)
22.12.2018 01:39 6,8 C 96 % 999,9 hPa 0,0 l/m 15,1 km/h (3 Bft) W 270 0 min 0 W/m 6,2 C 1,2 C 24,1 km/h (4 Bft)
22.12.2018 01:42 6,9 C 96 % 999,9 hPa 0,0 l/m 16,3 km/h (3 Bft) W 281 0 min 0 W/m 6,3 C 0,8 C 25,7 km/h (4 Bft)
22.12.2018 01:45 6,9 C 95 % 999,9 hPa 0,0 l/m 15,1 km/h (3 Bft) W 267 0 min 0 W/m 6,2 C 1,3 C 25,7 km/h (4 Bft)
22.12.2018 01:48 6,9 C 95 % 1000,0 hPa 0,0 l/m 10,5 km/h (2 Bft) N-NW 337 0 min 0 W/m 6,2 C 3,8 C 17,7 km/h (3 Bft)
22.12.2018 01:51 6,9 C 95 % 1000,0 hPa 0,0 l/m 15,6 km/h (3 Bft) W 263 0 min 0 W/m 6,2 C 1,1 C 24,1 km/h (4 Bft)
22.12.2018 01:54 6,9 C 95 % 1000,1 hPa 0,0 l/m 13,6 km/h (3 Bft) W-SW 258 0 min 0 W/m 6,2 C 2,1 C 20,9 km/h (4 Bft)
22.12.2018 01:57 6,9 C 95 % 1000,1 hPa 0,0 l/m 13,0 km/h (3 Bft) W-SW 253 0 min 0 W/m 6,2 C 2,4 C 30,6 km/h (5 Bft)
22.12.2018 02:00 6,9 C 95 % 1000,1 hPa 0,0 l/m 14,1 km/h (3 Bft) W-SW 255 0 min 0 W/m 6,2 C 1,8 C 25,7 km/h (4 Bft)
22.12.2018 02:03 6,9 C 95 % 1000,2 hPa 0,0 l/m 13,8 km/h (3 Bft) W 263 0 min 0 W/m 6,2 C 2,0 C 29,0 km/h (5 Bft)
22.12.2018 02:06 6,9 C 95 % 1000,2 hPa 0,0 l/m 14,9 km/h (3 Bft) W-SW 257 0 min 0 W/m 6,2 C 1,4 C 29,0 km/h (5 Bft)
22.12.2018 02:09 6,9 C 95 % 1000,2 hPa 0,0 l/m 15,0 km/h (3 Bft) W-NW 292 0 min 0 W/m 6,2 C 1,4 C 24,1 km/h (4 Bft)
22.12.2018 02:12 6,9 C 95 % 1000,3 hPa 0,0 l/m 13,9 km/h (3 Bft) W 260 0 min 0 W/m 6,2 C 1,9 C 22,5 km/h (4 Bft)
22.12.2018 02:15 6,9 C 95 % 1000,3 hPa 0,0 l/m 14,1 km/h (3 Bft) W 261 0 min 0 W/m 6,2 C 1,8 C 24,1 km/h (4 Bft)
22.12.2018 02:18 6,9 C 95 % 1000,3 hPa 0,0 l/m 12,8 km/h (3 Bft) W 275 0 min 0 W/m 6,2 C 2,5 C 20,9 km/h (4 Bft)
22.12.2018 02:21 6,9 C 95 % 1000,4 hPa 0,0 l/m 15,7 km/h (3 Bft) W 261 0 min 0 W/m 6,2 C 1,1 C 24,1 km/h (4 Bft)
22.12.2018 02:24 6,9 C 95 % 1000,4 hPa 0,0 l/m 12,8 km/h (3 Bft) SW 224 0 min 0 W/m 6,2 C 2,5 C 22,5 km/h (4 Bft)
22.12.2018 02:27 6,9 C 95 % 1000,5 hPa 0,0 l/m 11,9 km/h (2 Bft) W-SW 256 0 min 0 W/m 6,2 C 3,0 C 17,7 km/h (3 Bft)
22.12.2018 02:30 6,8 C 95 % 1000,5 hPa 0,0 l/m 10,3 km/h (2 Bft) W-SW 251 0 min 0 W/m 6,1 C 3,9 C 19,3 km/h (3 Bft)
22.12.2018 02:33 6,8 C 95 % 1000,6 hPa 0,0 l/m 10,8 km/h (2 Bft) W 275 0 min 0 W/m 6,1 C 3,5 C 19,3 km/h (3 Bft)
22.12.2018 02:36 6,8 C 95 % 1000,7 hPa 0,0 l/m 10,0 km/h (2 Bft) W 265 0 min 0 W/m 6,1 C 4,1 C 17,7 km/h (3 Bft)
22.12.2018 02:39 6,7 C 95 % 1000,7 hPa 0,0 l/m 8,2 km/h (2 Bft) W 261 0 min 0 W/m 6,0 C 5,2 C 14,5 km/h (3 Bft)
22.12.2018 02:42 6,7 C 95 % 1000,7 hPa 0,0 l/m 10,1 km/h (2 Bft) W-SW 237 0 min 0 W/m 6,0 C 3,9 C 14,5 km/h (3 Bft)
22.12.2018 02:45 6,7 C 95 % 1000,8 hPa 0,0 l/m 7,8 km/h (2 Bft) W-NW 302 0 min 0 W/m 6,0 C 5,5 C 17,7 km/h (3 Bft)
22.12.2018 02:48 6,6 C 95 % 1000,9 hPa 0,0 l/m 10,7 km/h (2 Bft) W 272 0 min 0 W/m 5,9 C 3,4 C 17,7 km/h (3 Bft)
22.12.2018 02:51 6,6 C 95 % 1000,9 hPa 0,0 l/m 12,2 km/h (2 Bft) W-NW 293 0 min 0 W/m 5,9 C 2,5 C 19,3 km/h (3 Bft)
22.12.2018 02:54 6,6 C 95 % 1001,0 hPa 0,0 l/m 10,9 km/h (2 Bft) W-SW 257 0 min 0 W/m 5,9 C 3,3 C 19,3 km/h (3 Bft)
22.12.2018 02:57 6,6 C 95 % 1001,0 hPa 0,0 l/m 10,4 km/h (2 Bft) W 279 0 min 0 W/m 5,9 C 3,6 C 19,3 km/h (3 Bft)
22.12.2018 03:00 6,7 C 95 % 1001,0 hPa 0,0 l/m 13,1 km/h (3 Bft) W-SW 242 0 min 0 W/m 6,0 C 2,1 C 17,7 km/h (3 Bft)
22.12.2018 03:03 6,7 C 95 % 1001,1 hPa 0,0 l/m 11,8 km/h (2 Bft) W-SW 240 0 min 0 W/m 6,0 C 2,8 C 19,3 km/h (3 Bft)
22.12.2018 03:06 6,7 C 95 % 1001,0 hPa 0,0 l/m 8,3 km/h (2 Bft) W 271 0 min 0 W/m 6,0 C 5,2 C 19,3 km/h (3 Bft)
22.12.2018 03:09 6,6 C 95 % 1001,1 hPa 0,0 l/m 11,2 km/h (2 Bft) W-SW 246 0 min 0 W/m 5,9 C 3,1 C 17,7 km/h (3 Bft)
22.12.2018 03:12 6,6 C 95 % 1001,0 hPa 0,0 l/m 12,5 km/h (2 Bft) W-SW 239 0 min 0 W/m 5,9 C 2,3 C 19,3 km/h (3 Bft)
22.12.2018 03:15 6,6 C 95 % 1001,0 hPa 0,0 l/m 10,7 km/h (2 Bft) SW 236 0 min 0 W/m 5,9 C 3,4 C 16,1 km/h (3 Bft)
22.12.2018 03:18 6,6 C 95 % 1001,0 hPa 0,0 l/m 9,3 km/h (2 Bft) W 263 0 min 0 W/m 5,9 C 4,3 C 17,7 km/h (3 Bft)
22.12.2018 03:21 6,6 C 95 % 1001,0 hPa 0,0 l/m 10,1 km/h (2 Bft) SW 235 0 min 0 W/m 5,9 C 3,8 C 17,7 km/h (3 Bft)
22.12.2018 03:24 6,6 C 95 % 1001,1 hPa 0,0 l/m 10,4 km/h (2 Bft) W 268 0 min 0 W/m 5,9 C 3,6 C 14,5 km/h (3 Bft)
22.12.2018 03:27 6,6 C 95 % 1001,1 hPa 0,0 l/m 9,0 km/h (2 Bft) W 259 0 min 0 W/m 5,9 C 4,5 C 14,5 km/h (3 Bft)
22.12.2018 03:30 6,6 C 95 % 1001,1 hPa 0,0 l/m 10,9 km/h (2 Bft) W 265 0 min 0 W/m 5,9 C 3,3 C 17,7 km/h (3 Bft)
22.12.2018 03:33 6,6 C 95 % 1001,2 hPa 0,0 l/m 10,9 km/h (2 Bft) W-SW 258 0 min 0 W/m 5,9 C 3,3 C 16,1 km/h (3 Bft)
22.12.2018 03:36 6,6 C 95 % 1001,3 hPa 0,0 l/m 12,3 km/h (2 Bft) W 281 0 min 0 W/m 5,9 C 2,4 C 22,5 km/h (4 Bft)
22.12.2018 03:39 6,6 C 95 % 1001,2 hPa 0,0 l/m 13,2 km/h (3 Bft) W 261 0 min 0 W/m 5,9 C 1,9 C 19,3 km/h (3 Bft)
22.12.2018 03:42 6,7 C 95 % 1001,2 hPa 0,0 l/m 9,7 km/h (2 Bft) SW 232 0 min 0 W/m 6,0 C 4,2 C 16,1 km/h (3 Bft)
22.12.2018 03:45 6,7 C 95 % 1001,2 hPa 0,0 l/m 11,5 km/h (2 Bft) W 259 0 min 0 W/m 6,0 C 3,0 C 20,9 km/h (4 Bft)
22.12.2018 03:48 6,7 C 95 % 1001,3 hPa 0,0 l/m 12,2 km/h (2 Bft) W-SW 246 0 min 0 W/m 6,0 C 2,6 C 17,7 km/h (3 Bft)
22.12.2018 03:51 6,6 C 95 % 1001,2 hPa 0,0 l/m 9,9 km/h (2 Bft) SW 232 0 min 0 W/m 5,9 C 3,9 C 19,3 km/h (3 Bft)
22.12.2018 03:54 6,7 C 95 % 1001,3 hPa 0,0 l/m 10,5 km/h (2 Bft) SW 219 0 min 0 W/m 6,0 C 3,6 C 17,7 km/h (3 Bft)
22.12.2018 03:57 6,6 C 95 % 1001,3 hPa 0,0 l/m 7,6 km/h (2 Bft) SW 228 0 min 0 W/m 5,9 C 5,6 C 12,9 km/h (3 Bft)
22.12.2018 04:00 6,6 C 95 % 1001,3 hPa 0,0 l/m 9,7 km/h (2 Bft) W-SW 242 0 min 0 W/m 5,9 C 4,0 C 17,7 km/h (3 Bft)
22.12.2018 04:03 6,6 C 95 % 1001,3 hPa 0,0 l/m 10,3 km/h (2 Bft) SW 231 0 min 0 W/m 5,9 C 3,6 C 20,9 km/h (4 Bft)
22.12.2018 04:06 6,5 C 95 % 1001,3 hPa 0,0 l/m 8,2 km/h (2 Bft) W 259 0 min 0 W/m 5,8 C 5,0 C 17,7 km/h (3 Bft)
22.12.2018 04:09 6,5 C 95 % 1001,3 hPa 0,0 l/m 13,5 km/h (3 Bft) W-SW 248 0 min 0 W/m 5,8 C 1,7 C 20,9 km/h (4 Bft)
22.12.2018 04:12 6,5 C 96 % 1001,4 hPa 0,0 l/m 14,1 km/h (3 Bft) W 263 0 min 0 W/m 5,9 C 1,3 C 22,5 km/h (4 Bft)
22.12.2018 04:15 6,5 C 96 % 1001,3 hPa 0,0 l/m 12,3 km/h (2 Bft) W-SW 248 0 min 0 W/m 5,9 C 2,3 C 20,9 km/h (4 Bft)
22.12.2018 04:18 6,6 C 96 % 1001,3 hPa 0,0 l/m 12,4 km/h (2 Bft) W-SW 241 0 min 0 W/m 6,0 C 2,4 C 24,1 km/h (4 Bft)
22.12.2018 04:21 6,6 C 96 % 1001,3 hPa 0,0 l/m 10,6 km/h (2 Bft) SW 235 0 min 0 W/m 6,0 C 3,4 C 17,7 km/h (3 Bft)
22.12.2018 04:24 6,6 C 95 % 1001,3 hPa 0,0 l/m 10,9 km/h (2 Bft) W-SW 246 0 min 0 W/m 5,9 C 3,3 C 17,7 km/h (3 Bft)
22.12.2018 04:27 6,6 C 95 % 1001,4 hPa 0,0 l/m 7,6 km/h (2 Bft) W-SW 246 0 min 0 W/m 5,9 C 5,6 C 14,5 km/h (3 Bft)
22.12.2018 04:30 6,5 C 95 % 1001,3 hPa 0,0 l/m 9,6 km/h (2 Bft) W 261 0 min 0 W/m 5,8 C 4,0 C 19,3 km/h (3 Bft)
22.12.2018 04:33 6,4 C 95 % 1001,3 hPa 0,0 l/m 10,0 km/h (2 Bft) W-SW 243 0 min 0 W/m 5,7 C 3,6 C 17,7 km/h (3 Bft)
22.12.2018 04:36 6,4 C 95 % 1001,3 hPa 0,0 l/m 10,4 km/h (2 Bft) W-SW 251 0 min 0 W/m 5,7 C 3,4 C 16,1 km/h (3 Bft)
22.12.2018 04:39 6,3 C 95 % 1001,3 hPa 0,0 l/m 9,7 km/h (2 Bft) W 281 0 min 0 W/m 5,6 C 3,7 C 16,1 km/h (3 Bft)
22.12.2018 04:42 6,3 C 95 % 1001,4 hPa 0,0 l/m 9,1 km/h (2 Bft) W 274 0 min 0 W/m 5,6 C 4,1 C 16,1 km/h (3 Bft)
22.12.2018 04:45 6,3 C 95 % 1001,3 hPa 0,0 l/m 9,1 km/h (2 Bft) W 260 0 min 0 W/m 5,6 C 4,1 C 16,1 km/h (3 Bft)
22.12.2018 04:48 6,2 C 95 % 1001,4 hPa 0,0 l/m 11,2 km/h (2 Bft) W-SW 248 0 min 0 W/m 5,5 C 2,6 C 20,9 km/h (4 Bft)
22.12.2018 04:51 6,2 C 95 % 1001,4 hPa 0,0 l/m 12,4 km/h (2 Bft) W-SW 257 0 min 0 W/m 5,5 C 1,9 C 22,5 km/h (4 Bft)
22.12.2018 04:54 6,2 C 96 % 1001,4 hPa 0,0 l/m 11,3 km/h (2 Bft) W 263 0 min 0 W/m 5,6 C 2,6 C 17,7 km/h (3 Bft)
22.12.2018 04:57 6,3 C 95 % 1001,4 hPa 0,0 l/m 10,5 km/h (2 Bft) W 280 0 min 0 W/m 5,6 C 3,2 C 19,3 km/h (3 Bft)
22.12.2018 05:00 6,3 C 95 % 1001,5 hPa 0,0 l/m 10,8 km/h (2 Bft) W-SW 240 0 min 0 W/m 5,6 C 3,0 C 17,7 km/h (3 Bft)
22.12.2018 05:03 6,3 C 95 % 1001,5 hPa 0,0 l/m 13,3 km/h (3 Bft) W 262 0 min 0 W/m 5,6 C 1,5 C 19,3 km/h (3 Bft)
22.12.2018 05:06 6,3 C 95 % 1001,5 hPa 0,0 l/m 14,0 km/h (3 Bft) W 266 0 min 0 W/m 5,6 C 1,2 C 22,5 km/h (4 Bft)
22.12.2018 05:09 6,3 C 95 % 1001,5 hPa 0,0 l/m 11,9 km/h (2 Bft) W-SW 241 0 min 0 W/m 5,6 C 2,3 C 19,3 km/h (3 Bft)
22.12.2018 05:12 6,3 C 95 % 1001,5 hPa 0,0 l/m 11,7 km/h (2 Bft) W 275 0 min 0 W/m 5,6 C 2,4 C 19,3 km/h (3 Bft)
22.12.2018 05:15 6,4 C 95 % 1001,5 hPa 0,0 l/m 10,6 km/h (2 Bft) W 271 0 min 0 W/m 5,7 C 3,2 C 19,3 km/h (3 Bft)
22.12.2018 05:18 6,4 C 95 % 1001,6 hPa 0,0 l/m 12,2 km/h (2 Bft) W-SW 257 0 min 0 W/m 5,7 C 2,3 C 20,9 km/h (4 Bft)
22.12.2018 05:21 6,4 C 95 % 1001,6 hPa 0,0 l/m 10,7 km/h (2 Bft) W-SW 244 0 min 0 W/m 5,7 C 3,2 C 17,7 km/h (3 Bft)
22.12.2018 05:24 6,4 C 96 % 1001,6 hPa 0,0 l/m 10,0 km/h (2 Bft) W 271 0 min 0 W/m 5,8 C 3,6 C 19,3 km/h (3 Bft)
22.12.2018 05:27 6,4 C 96 % 1001,5 hPa 0,0 l/m 9,3 km/h (2 Bft) SW 222 0 min 0 W/m 5,8 C 4,1 C 16,1 km/h (3 Bft)
22.12.2018 05:30 6,3 C 96 % 1001,6 hPa 0,0 l/m 8,4 km/h (2 Bft) SW 234 0 min 0 W/m 5,7 C 4,7 C 16,1 km/h (3 Bft)
22.12.2018 05:33 6,3 C 96 % 1001,6 hPa 0,0 l/m 10,6 km/h (2 Bft) W 261 0 min 0 W/m 5,7 C 3,1 C 17,7 km/h (3 Bft)
22.12.2018 05:36 6,3 C 95 % 1001,7 hPa 0,0 l/m 9,4 km/h (2 Bft) W 265 0 min 0 W/m 5,6 C 3,9 C 19,3 km/h (3 Bft)
22.12.2018 05:39 6,3 C 95 % 1001,7 hPa 0,0 l/m 9,6 km/h (2 Bft) W-SW 241 0 min 0 W/m 5,6 C 3,8 C 17,7 km/h (3 Bft)
22.12.2018 05:42 6,3 C 95 % 1001,6 hPa 0,0 l/m 6,8 km/h (2 Bft) W-SW 238 0 min 0 W/m 5,6 C 6,0 C 12,9 km/h (3 Bft)
22.12.2018 05:45 6,3 C 95 % 1001,7 hPa 0,0 l/m 9,2 km/h (2 Bft) W-NW 284 0 min 0 W/m 5,6 C 4,1 C 14,5 km/h (3 Bft)
22.12.2018 05:48 6,3 C 95 % 1001,6 hPa 0,0 l/m 11,6 km/h (2 Bft) W 266 0 min 0 W/m 5,6 C 2,5 C 24,1 km/h (4 Bft)
22.12.2018 05:51 6,3 C 95 % 1001,6 hPa 0,0 l/m 9,8 km/h (2 Bft) W 261 0 min 0 W/m 5,6 C 3,6 C 17,7 km/h (3 Bft)
22.12.2018 05:54 6,3 C 96 % 1001,6 hPa 0,0 l/m 11,7 km/h (2 Bft) SW 227 0 min 0 W/m 5,7 C 2,4 C 20,9 km/h (4 Bft)
22.12.2018 05:57 6,4 C 96 % 1001,6 hPa 0,0 l/m 11,8 km/h (2 Bft) W 281 0 min 0 W/m 5,8 C 2,5 C 22,5 km/h (4 Bft)
22.12.2018 06:00 6,4 C 96 % 1001,7 hPa 0,0 l/m 12,0 km/h (2 Bft) W 267 0 min 0 W/m 5,8 C 2,4 C 17,7 km/h (3 Bft)
22.12.2018 06:03 6,5 C 96 % 1001,6 hPa 0,0 l/m 11,2 km/h (2 Bft) W 278 0 min 0 W/m 5,9 C 3,0 C 19,3 km/h (3 Bft)
22.12.2018 06:06 6,5 C 96 % 1001,7 hPa 0,0 l/m 10,8 km/h (2 Bft) SW 229 0 min 0 W/m 5,9 C 3,2 C 22,5 km/h (4 Bft)
22.12.2018 06:09 6,6 C 96 % 1001,7 hPa 0,2 l/m 11,5 km/h (2 Bft) W 269 0 min 0 W/m 6,0 C 2,9 C 19,3 km/h (3 Bft)
22.12.2018 06:12 6,6 C 96 % 1001,8 hPa 0,0 l/m 8,5 km/h (2 Bft) W-SW 249 0 min 0 W/m 6,0 C 4,9 C 16,1 km/h (3 Bft)
22.12.2018 06:15 6,7 C 96 % 1001,8 hPa 0,0 l/m 12,1 km/h (2 Bft) W-NW 292 0 min 0 W/m 6,1 C 2,7 C 17,7 km/h (3 Bft)
22.12.2018 06:18 6,7 C 96 % 1001,8 hPa 0,0 l/m 9,3 km/h (2 Bft) W-SW 257 0 min 0 W/m 6,1 C 4,4 C 16,1 km/h (3 Bft)
22.12.2018 06:21 6,7 C 96 % 1001,9 hPa 0,0 l/m 9,1 km/h (2 Bft) W 267 0 min 0 W/m 6,1 C 4,6 C 16,1 km/h (3 Bft)
22.12.2018 06:24 6,7 C 96 % 1001,9 hPa 0,0 l/m 7,3 km/h (2 Bft) W-SW 240 0 min 0 W/m 6,1 C 6,0 C 11,3 km/h (2 Bft)
22.12.2018 06:27 6,7 C 96 % 1002,0 hPa 0,2 l/m 6,4 km/h (2 Bft) W 280 0 min 0 W/m 6,1 C 6,7 C 14,5 km/h (3 Bft)
22.12.2018 06:30 6,7 C 96 % 1002,0 hPa 0,0 l/m 7,9 km/h (2 Bft) SW 231 0 min 0 W/m 6,1 C 5,5 C 11,3 km/h (2 Bft)
22.12.2018 06:33 6,7 C 96 % 1001,9 hPa 0,0 l/m 5,3 km/h (1 Bft) W 260 0 min 0 W/m 6,1 C 6,7 C 9,7 km/h (2 Bft)
22.12.2018 06:36 6,6 C 96 % 1001,9 hPa 0,0 l/m 7,1 km/h (2 Bft) W 269 0 min 0 W/m 6,0 C 6,0 C 12,9 km/h (3 Bft)
22.12.2018 06:39 6,6 C 96 % 1002,0 hPa 0,0 l/m 6,8 km/h (2 Bft) W-SW 241 0 min 0 W/m 6,0 C 6,3 C 12,9 km/h (3 Bft)
22.12.2018 06:42 6,6 C 96 % 1002,0 hPa 0,0 l/m 5,1 km/h (1 Bft) SW 215 0 min 0 W/m 6,0 C 6,6 C 9,7 km/h (2 Bft)
22.12.2018 06:45 6,5 C 96 % 1002,0 hPa 0,2 l/m 4,8 km/h (1 Bft) W 266 0 min 0 W/m 5,9 C 6,5 C 8,0 km/h (2 Bft)
22.12.2018 06:48 6,5 C 96 % 1002,1 hPa 0,0 l/m 5,5 km/h (2 Bft) W-SW 252 0 min 0 W/m 5,9 C 6,5 C 9,7 km/h (2 Bft)
22.12.2018 06:51 6,4 C 96 % 1002,2 hPa 0,0 l/m 5,1 km/h (1 Bft) SW 234 0 min 0 W/m 5,8 C 6,4 C 9,7 km/h (2 Bft)
22.12.2018 06:54 6,4 C 96 % 1002,2 hPa 0,0 l/m 4,1 km/h (1 Bft) SW 234 0 min 0 W/m 5,8 C 6,4 C 6,4 km/h (2 Bft)
22.12.2018 06:57 6,4 C 96 % 1002,2 hPa 0,0 l/m 6,5 km/h (2 Bft) W 271 0 min 0 W/m 5,8 C 6,3 C 11,3 km/h (2 Bft)
22.12.2018 07:00 6,3 C 96 % 1002,2 hPa 0,0 l/m 7,6 km/h (2 Bft) W-SW 256 0 min 0 W/m 5,7 C 5,3 C 14,5 km/h (3 Bft)
22.12.2018 07:03 6,3 C 96 % 1002,3 hPa 0,0 l/m 7,7 km/h (2 Bft) W-SW 240 0 min 0 W/m 5,7 C 5,2 C 14,5 km/h (3 Bft)
22.12.2018 07:06 6,3 C 96 % 1002,2 hPa 0,0 l/m 7,1 km/h (2 Bft) W-SW 253 0 min 0 W/m 5,7 C 5,7 C 12,9 km/h (3 Bft)
22.12.2018 07:09 6,3 C 96 % 1002,3 hPa 0,0 l/m 7,9 km/h (2 Bft) SW 227 0 min 0 W/m 5,7 C 5,0 C 12,9 km/h (3 Bft)
22.12.2018 07:12 6,3 C 96 % 1002,4 hPa 0,0 l/m 5,9 km/h (2 Bft) W-SW 254 0 min 0 W/m 5,7 C 6,3 C 9,7 km/h (2 Bft)
22.12.2018 07:15 6,3 C 96 % 1002,3 hPa 0,0 l/m 5,2 km/h (1 Bft) W-SW 245 0 min 0 W/m 5,7 C 6,3 C 9,7 km/h (2 Bft)
22.12.2018 07:18 6,2 C 96 % 1002,4 hPa 0,0 l/m 4,8 km/h (1 Bft) W-SW 250 0 min 0 W/m 5,6 C 6,2 C 8,0 km/h (2 Bft)
22.12.2018 07:21 6,2 C 96 % 1002,4 hPa 0,0 l/m 5,1 km/h (1 Bft) W-SW 250 0 min 0 W/m 5,6 C 6,2 C 8,0 km/h (2 Bft)
22.12.2018 07:24 6,2 C 96 % 1002,4 hPa 0,0 l/m 6,1 km/h (2 Bft) W-SW 238 0 min 0 W/m 5,6 C 6,2 C 12,9 km/h (3 Bft)
22.12.2018 07:27 6,2 C 96 % 1002,5 hPa 0,0 l/m 6,9 km/h (2 Bft) SW 234 0 min 0 W/m 5,6 C 5,8 C 12,9 km/h (3 Bft)
22.12.2018 07:30 6,2 C 96 % 1002,5 hPa 0,0 l/m 4,9 km/h (1 Bft) W-SW 237 0 min 0 W/m 5,6 C 6,2 C 9,7 km/h (2 Bft)
22.12.2018 07:33 6,2 C 96 % 1002,5 hPa 0,0 l/m 4,9 km/h (1 Bft) W-SW 240 0 min 0 W/m 5,6 C 6,2 C 6,4 km/h (2 Bft)
22.12.2018 07:36 6,1 C 96 % 1002,5 hPa 0,0 l/m 4,4 km/h (1 Bft) W-SW 252 0 min 0 W/m 5,5 C 6,1 C 8,0 km/h (2 Bft)
22.12.2018 07:39 6,2 C 96 % 1002,6 hPa 0,0 l/m 4,2 km/h (1 Bft) W-SW 246 0 min 0 W/m 5,6 C 6,2 C 6,4 km/h (2 Bft)
22.12.2018 07:42 6,2 C 96 % 1002,7 hPa 0,0 l/m 5,1 km/h (1 Bft) W 262 0 min 0 W/m 5,6 C 6,2 C 9,7 km/h (2 Bft)
22.12.2018 07:45 6,1 C 96 % 1002,7 hPa 0,0 l/m 5,9 km/h (2 Bft) W-SW 248 0 min 0 W/m 5,5 C 6,1 C 9,7 km/h (2 Bft)
22.12.2018 07:48 6,1 C 96 % 1002,7 hPa 0,0 l/m 6,3 km/h (2 Bft) W 267 0 min 0 W/m 5,5 C 6,1 C 11,3 km/h (2 Bft)
22.12.2018 07:51 6,1 C 96 % 1002,8 hPa 0,0 l/m 5,0 km/h (1 Bft) W 273 0 min 0 W/m 5,5 C 6,1 C 11,3 km/h (2 Bft)
22.12.2018 07:54 6,1 C 96 % 1002,8 hPa 0,0 l/m 5,8 km/h (2 Bft) W-SW 257 0 min 0 W/m 5,5 C 6,1 C 11,3 km/h (2 Bft)
22.12.2018 07:57 6,1 C 96 % 1002,9 hPa 0,0 l/m 7,3 km/h (2 Bft) W-SW 248 0 min 0 W/m 5,5 C 5,3 C 12,9 km/h (3 Bft)
22.12.2018 08:00 6,2 C 96 % 1002,9 hPa 0,0 l/m 6,9 km/h (2 Bft) W 274 0 min 0 W/m 5,6 C 5,8 C 12,9 km/h (3 Bft)
22.12.2018 08:03 6,2 C 96 % 1002,9 hPa 0,0 l/m 5,9 km/h (2 Bft) W 275 0 min 0 W/m 5,6 C 6,2 C 12,9 km/h (3 Bft)
22.12.2018 08:06 6,2 C 96 % 1003,0 hPa 0,0 l/m 7,6 km/h (2 Bft) W 272 0 min 0 W/m 5,6 C 5,2 C 12,9 km/h (3 Bft)
22.12.2018 08:09 6,2 C 96 % 1003,0 hPa 0,2 l/m 4,4 km/h (1 Bft) W 273 0 min 0 W/m 5,6 C 6,2 C 6,4 km/h (2 Bft)
22.12.2018 08:12 6,2 C 96 % 1003,0 hPa 0,0 l/m 4,1 km/h (1 Bft) W 272 0 min 0 W/m 5,6 C 6,2 C 9,7 km/h (2 Bft)
22.12.2018 08:15 6,2 C 96 % 1003,0 hPa 0,0 l/m 5,0 km/h (1 Bft) W 261 0 min 0 W/m 5,6 C 6,2 C 9,7 km/h (2 Bft)
22.12.2018 08:18 6,2 C 96 % 1003,1 hPa 0,0 l/m 4,2 km/h (1 Bft) W 261 0 min 0 W/m 5,6 C 6,2 C 6,4 km/h (2 Bft)
22.12.2018 08:21 6,2 C 96 % 1003,1 hPa 0,0 l/m 4,1 km/h (1 Bft) SW 236 0 min 0 W/m 5,6 C 6,2 C 9,7 km/h (2 Bft)
22.12.2018 08:24 6,3 C 96 % 1003,2 hPa 0,0 l/m 4,4 km/h (1 Bft) SW 236 0 min 0 W/m 5,7 C 6,3 C 8,0 km/h (2 Bft)
22.12.2018 08:27 6,3 C 96 % 1003,4 hPa 0,0 l/m 5,5 km/h (2 Bft) W 281 0 min 0 W/m 5,7 C 6,3 C 11,3 km/h (2 Bft)
22.12.2018 08:30 6,3 C 96 % 1003,4 hPa 0,0 l/m 4,1 km/h (1 Bft) W 279 0 min 0 W/m 5,7 C 6,3 C 9,7 km/h (2 Bft)
22.12.2018 08:33 6,3 C 96 % 1003,5 hPa 0,0 l/m 4,7 km/h (1 Bft) W 269 0 min 0 W/m 5,7 C 6,3 C 9,7 km/h (2 Bft)
22.12.2018 08:36 6,3 C 96 % 1003,5 hPa 0,0 l/m 4,1 km/h (1 Bft) W 267 0 min 0 W/m 5,7 C 6,3 C 6,4 km/h (2 Bft)
22.12.2018 08:39 6,2 C 96 % 1003,6 hPa 0,0 l/m 4,5 km/h (1 Bft) W 266 0 min 0 W/m 5,6 C 6,2 C 9,7 km/h (2 Bft)
22.12.2018 08:42 6,2 C 96 % 1003,6 hPa 0,0 l/m 4,0 km/h (1 Bft) W 265 0 min 0 W/m 5,6 C 6,2 C 9,7 km/h (2 Bft)
22.12.2018 08:45 6,2 C 96 % 1003,7 hPa 0,0 l/m 3,6 km/h (1 Bft) W 265 0 min 0 W/m 5,6 C 6,2 C 9,7 km/h (2 Bft)
22.12.2018 08:48 6,2 C 96 % 1003,8 hPa 0,0 l/m 2,7 km/h (1 Bft) W 265 0 min 0 W/m 5,6 C 6,2 C 4,8 km/h (1 Bft)
22.12.2018 08:51 6,2 C 96 % 1003,9 hPa 0,0 l/m 2,9 km/h (1 Bft) W 265 0 min 0 W/m 5,6 C 6,2 C 4,8 km/h (1 Bft)
22.12.2018 08:54 6,2 C 96 % 1004,0 hPa 0,0 l/m 3,7 km/h (1 Bft) W 265 0 min 0 W/m 5,6 C 6,2 C 6,4 km/h (2 Bft)
22.12.2018 08:57 6,2 C 96 % 1004,0 hPa 0,0 l/m 5,2 km/h (1 Bft) W-SW 253 0 min 0 W/m 5,6 C 6,2 C 9,7 km/h (2 Bft)
22.12.2018 09:00 6,2 C 96 % 1004,0 hPa 0,0 l/m 4,9 km/h (1 Bft) W-SW 246 0 min 0 W/m 5,6 C 6,2 C 11,3 km/h (2 Bft)
22.12.2018 09:03 6,2 C 96 % 1004,1 hPa 0,0 l/m 5,8 km/h (2 Bft) W-SW 253 0 min 0 W/m 5,6 C 6,2 C 9,7 km/h (2 Bft)
22.12.2018 09:06 6,2 C 96 % 1004,1 hPa 0,0 l/m 5,7 km/h (2 Bft) W-SW 252 0 min 0 W/m 5,6 C 6,2 C 8,0 km/h (2 Bft)
22.12.2018 09:09 6,2 C 96 % 1004,1 hPa 0,0 l/m 4,3 km/h (1 Bft) W-SW 252 0 min 0 W/m 5,6 C 6,2 C 6,4 km/h (2 Bft)
22.12.2018 09:12 6,3 C 96 % 1004,1 hPa 0,0 l/m 3,9 km/h (1 Bft) W-SW 252 0 min 5 W/m 5,7 C 6,3 C 6,4 km/h (2 Bft)
22.12.2018 09:15 6,2 C 96 % 1004,2 hPa 0,0 l/m 3,9 km/h (1 Bft) W-SW 252 0 min 0 W/m 5,6 C 6,2 C 4,8 km/h (1 Bft)
22.12.2018 09:18 6,2 C 96 % 1004,3 hPa 0,0 l/m 3,5 km/h (1 Bft) W-SW 252 0 min 0 W/m 5,6 C 6,2 C 4,8 km/h (1 Bft)
22.12.2018 09:21 6,2 C 96 % 1004,3 hPa 0,0 l/m 5,1 km/h (1 Bft) SW 232 0 min 0 W/m 5,6 C 6,2 C 8,0 km/h (2 Bft)
22.12.2018 09:24 6,2 C 96 % 1004,4 hPa 0,0 l/m 3,1 km/h (1 Bft) SW 232 0 min 0 W/m 5,6 C 6,2 C 4,8 km/h (1 Bft)
22.12.2018 09:27 6,2 C 96 % 1004,5 hPa 0,0 l/m 3,2 km/h (1 Bft) SW 232 0 min 5 W/m 5,6 C 6,2 C 6,4 km/h (2 Bft)
22.12.2018 09:30 6,2 C 96 % 1004,5 hPa 0,2 l/m 4,3 km/h (1 Bft) SW 232 0 min 7 W/m 5,6 C 6,2 C 8,0 km/h (2 Bft)
22.12.2018 09:33 6,2 C 96 % 1004,5 hPa 0,0 l/m 3,3 km/h (1 Bft) SW 232 0 min 9 W/m 5,6 C 6,2 C 4,8 km/h (1 Bft)
22.12.2018 09:36 6,2 C 96 % 1004,5 hPa 0,0 l/m 4,3 km/h (1 Bft) W 265 0 min 9 W/m 5,6 C 6,2 C 9,7 km/h (2 Bft)
22.12.2018 09:39 6,2 C 96 % 1004,7 hPa 0,0 l/m 3,8 km/h (1 Bft) W-SW 251 0 min 11 W/m 5,6 C 6,2 C 8,0 km/h (2 Bft)
22.12.2018 09:42 6,3 C 96 % 1004,8 hPa 0,0 l/m 3,7 km/h (1 Bft) W-SW 251 0 min 12 W/m 5,7 C 6,3 C 6,4 km/h (2 Bft)
22.12.2018 09:45 6,3 C 96 % 1004,8 hPa 0,0 l/m 4,0 km/h (1 Bft) W-SW 252 0 min 12 W/m 5,7 C 6,3 C 8,0 km/h (2 Bft)
22.12.2018 09:48 6,2 C 96 % 1004,8 hPa 0,0 l/m 2,6 km/h (1 Bft) W-SW 252 0 min 12 W/m 5,6 C 6,2 C 6,4 km/h (2 Bft)
22.12.2018 09:51 6,2 C 96 % 1004,9 hPa 0,0 l/m 3,7 km/h (1 Bft) W-SW 252 0 min 14 W/m 5,6 C 6,2 C 6,4 km/h (2 Bft)
22.12.2018 09:54 6,2 C 96 % 1004,9 hPa 0,0 l/m 3,8 km/h (1 Bft) W-SW 252 0 min 16 W/m 5,6 C 6,2 C 8,0 km/h (2 Bft)
22.12.2018 09:57 6,2 C 96 % 1005,0 hPa 0,0 l/m 4,2 km/h (1 Bft) W-SW 252 0 min 14 W/m 5,6 C 6,2 C 8,0 km/h (2 Bft)
22.12.2018 10:00 6,2 C 96 % 1005,1 hPa 0,0 l/m 3,7 km/h (1 Bft) W-SW 248 0 min 12 W/m 5,6 C 6,2 C 8,0 km/h (2 Bft)
22.12.2018 10:03 6,2 C 96 % 1005,1 hPa 0,0 l/m 3,6 km/h (1 Bft) W-SW 248 0 min 9 W/m 5,6 C 6,2 C 6,4 km/h (2 Bft)
22.12.2018 10:06 6,2 C 96 % 1005,2 hPa 0,0 l/m 3,8 km/h (1 Bft) W-SW 248 0 min 7 W/m 5,6 C 6,2 C 8,0 km/h (2 Bft)
22.12.2018 10:09 6,2 C 96 % 1005,2 hPa 0,0 l/m 2,8 km/h (1 Bft) W-SW 248 0 min 7 W/m 5,6 C 6,2 C 6,4 km/h (2 Bft)
22.12.2018 10:12 6,2 C 96 % 1005,3 hPa 0,0 l/m 3,4 km/h (1 Bft) W-SW 246 0 min 9 W/m 5,6 C 6,2 C 6,4 km/h (2 Bft)
22.12.2018 10:15 6,2 C 96 % 1005,3 hPa 0,0 l/m 2,4 km/h (1 Bft) W-SW 246 0 min 11 W/m 5,6 C 6,2 C 4,8 km/h (1 Bft)
22.12.2018 10:18 6,2 C 96 % 1005,4 hPa 0,0 l/m 4,8 km/h (1 Bft) W-SW 246 0 min 9 W/m 5,6 C 6,2 C 6,4 km/h (2 Bft)
22.12.2018 10:21 6,2 C 96 % 1005,4 hPa 0,0 l/m 4,1 km/h (1 Bft) W-SW 246 0 min 11 W/m 5,6 C 6,2 C 6,4 km/h (2 Bft)
22.12.2018 10:24 6,2 C 96 % 1005,5 hPa 0,0 l/m 4,5 km/h (1 Bft) W-SW 245 0 min 11 W/m 5,6 C 6,2 C 8,0 km/h (2 Bft)
22.12.2018 10:27 6,2 C 96 % 1005,5 hPa 0,0 l/m 3,5 km/h (1 Bft) W-SW 245 0 min 12 W/m 5,6 C 6,2 C 6,4 km/h (2 Bft)
22.12.2018 10:30 6,2 C 96 % 1005,6 hPa 0,0 l/m 5,6 km/h (2 Bft) W-SW 254 0 min 12 W/m 5,6 C 6,2 C 9,7 km/h (2 Bft)
22.12.2018 10:33 6,2 C 96 % 1005,6 hPa 0,0 l/m 5,5 km/h (2 Bft) SW 225 0 min 18 W/m 5,6 C 6,2 C 8,0 km/h (2 Bft)
22.12.2018 10:36 6,2 C 96 % 1005,7 hPa 0,0 l/m 4,6 km/h (1 Bft) SW 225 0 min 14 W/m 5,6 C 6,2 C 8,0 km/h (2 Bft)
22.12.2018 10:39 6,2 C 96 % 1005,8 hPa 0,0 l/m 6,5 km/h (2 Bft) SW 225 0 min 21 W/m 5,6 C 6,1 C 9,7 km/h (2 Bft)
22.12.2018 10:42 6,2 C 96 % 1005,8 hPa 0,0 l/m 6,8 km/h (2 Bft) SW 235 0 min 23 W/m 5,6 C 5,9 C 11,3 km/h (2 Bft)
22.12.2018 10:45 6,2 C 96 % 1005,9 hPa 0,0 l/m 5,2 km/h (1 Bft) SW 230 0 min 25 W/m 5,6 C 6,2 C 9,7 km/h (2 Bft)
22.12.2018 10:48 6,2 C 96 % 1006,0 hPa 0,0 l/m 7,3 km/h (2 Bft) W-SW 237 0 min 23 W/m 5,6 C 5,4 C 11,3 km/h (2 Bft)
22.12.2018 10:51 6,2 C 96 % 1006,0 hPa 0,0 l/m 8,4 km/h (2 Bft) SW 236 0 min 26 W/m 5,6 C 4,6 C 14,5 km/h (3 Bft)
22.12.2018 10:54 6,2 C 96 % 1005,9 hPa 0,0 l/m 7,6 km/h (2 Bft) W 271 0 min 26 W/m 5,6 C 5,2 C 12,9 km/h (3 Bft)
22.12.2018 10:57 6,2 C 96 % 1005,9 hPa 0,0 l/m 7,4 km/h (2 Bft) SW 229 0 min 26 W/m 5,6 C 5,4 C 12,9 km/h (3 Bft)
22.12.2018 11:00 6,2 C 96 % 1005,9 hPa 0,0 l/m 4,9 km/h (1 Bft) SW 229 0 min 26 W/m 5,6 C 6,2 C 8,0 km/h (2 Bft)
22.12.2018 11:03 6,3 C 96 % 1005,9 hPa 0,0 l/m 4,6 km/h (1 Bft) SW 229 0 min 37 W/m 5,7 C 6,3 C 6,4 km/h (2 Bft)
22.12.2018 11:06 6,3 C 96 % 1006,0 hPa 0,0 l/m 3,7 km/h (1 Bft) SW 229 0 min 44 W/m 5,7 C 6,3 C 4,8 km/h (1 Bft)
22.12.2018 11:09 6,3 C 96 % 1006,0 hPa 0,0 l/m 4,9 km/h (1 Bft) SW 228 0 min 56 W/m 5,7 C 6,3 C 6,4 km/h (2 Bft)
22.12.2018 11:12 6,4 C 97 % 1006,0 hPa 0,0 l/m 5,8 km/h (2 Bft) SW 228 0 min 54 W/m 6,0 C 6,4 C 9,7 km/h (2 Bft)
22.12.2018 11:15 6,5 C 97 % 1006,1 hPa 0,0 l/m 5,7 km/h (2 Bft) SW 227 0 min 53 W/m 6,1 C 6,5 C 9,7 km/h (2 Bft)
22.12.2018 11:18 6,6 C 97 % 1006,1 hPa 0,0 l/m 6,0 km/h (2 Bft) SW 222 0 min 40 W/m 6,2 C 6,6 C 9,7 km/h (2 Bft)
22.12.2018 11:21 6,6 C 96 % 1006,1 hPa 0,0 l/m 5,4 km/h (2 Bft) SW 223 0 min 33 W/m 6,0 C 6,6 C 8,0 km/h (2 Bft)
22.12.2018 11:24 6,6 C 96 % 1006,2 hPa 0,0 l/m 4,8 km/h (1 Bft) SW 223 0 min 32 W/m 6,0 C 6,6 C 8,0 km/h (2 Bft)
22.12.2018 11:27 6,6 C 96 % 1006,2 hPa 0,0 l/m 3,0 km/h (1 Bft) SW 223 0 min 23 W/m 6,0 C 6,6 C 6,4 km/h (2 Bft)
22.12.2018 11:30 6,5 C 96 % 1006,2 hPa 0,0 l/m 3,4 km/h (1 Bft) SW 223 0 min 32 W/m 5,9 C 6,5 C 4,8 km/h (1 Bft)
22.12.2018 11:33 6,6 C 96 % 1006,3 hPa 0,0 l/m 2,3 km/h (1 Bft) SW 223 0 min 23 W/m 6,0 C 6,6 C 4,8 km/h (1 Bft)
22.12.2018 11:36 6,6 C 96 % 1006,3 hPa 0,0 l/m 3,1 km/h (1 Bft) SW 225 0 min 33 W/m 6,0 C 6,6 C 6,4 km/h (2 Bft)
22.12.2018 11:39 6,5 C 96 % 1006,3 hPa 0,0 l/m 2,1 km/h (1 Bft) SW 225 0 min 30 W/m 5,9 C 6,5 C 3,2 km/h (1 Bft)
22.12.2018 11:42 6,5 C 96 % 1006,5 hPa 0,2 l/m 1,5 km/h (1 Bft) SW 225 0 min 26 W/m 5,9 C 6,5 C 3,2 km/h (1 Bft)
22.12.2018 11:45 6,5 C 96 % 1006,4 hPa 0,0 l/m 1,2 km/h (1 Bft) SW 225 0 min 28 W/m 5,9 C 6,5 C 3,2 km/h (1 Bft)
22.12.2018 11:48 6,5 C 96 % 1006,4 hPa 0,0 l/m 1,5 km/h (1 Bft) SW 225 0 min 25 W/m 5,9 C 6,5 C 3,2 km/h (1 Bft)
22.12.2018 11:51 6,5 C 96 % 1006,5 hPa 0,0 l/m 3,2 km/h (1 Bft) SW 225 0 min 19 W/m 5,9 C 6,5 C 6,4 km/h (2 Bft)
22.12.2018 11:54 6,5 C 96 % 1006,5 hPa 0,0 l/m 4,6 km/h (1 Bft) SW 225 0 min 19 W/m 5,9 C 6,5 C 8,0 km/h (2 Bft)
22.12.2018 11:57 6,5 C 97 % 1006,6 hPa 0,0 l/m 5,6 km/h (2 Bft) S-SW 212 0 min 18 W/m 6,1 C 6,5 C 11,3 km/h (2 Bft)
22.12.2018 12:00 6,4 C 97 % 1006,6 hPa 0,0 l/m 5,7 km/h (2 Bft) S-SW 213 0 min 19 W/m 6,0 C 6,4 C 9,7 km/h (2 Bft)
22.12.2018 12:03 6,4 C 97 % 1006,6 hPa 0,0 l/m 5,0 km/h (1 Bft) S-SW 213 0 min 21 W/m 6,0 C 6,4 C 8,0 km/h (2 Bft)
22.12.2018 12:06 6,4 C 97 % 1006,6 hPa 0,0 l/m 5,7 km/h (2 Bft) S-SW 210 0 min 25 W/m 6,0 C 6,4 C 9,7 km/h (2 Bft)
22.12.2018 12:09 6,4 C 97 % 1006,6 hPa 0,0 l/m 6,0 km/h (2 Bft) S-SW 210 0 min 28 W/m 6,0 C 6,4 C 8,0 km/h (2 Bft)
22.12.2018 12:12 6,4 C 97 % 1006,7 hPa 0,0 l/m 4,0 km/h (1 Bft) S-SW 211 0 min 21 W/m 6,0 C 6,4 C 8,0 km/h (2 Bft)
22.12.2018 12:15 6,4 C 97 % 1006,6 hPa 0,0 l/m 2,5 km/h (1 Bft) S-SW 211 0 min 19 W/m 6,0 C 6,4 C 6,4 km/h (2 Bft)
22.12.2018 12:18 6,4 C 97 % 1006,7 hPa 0,0 l/m 4,1 km/h (1 Bft) SW 214 0 min 25 W/m 6,0 C 6,4 C 8,0 km/h (2 Bft)
22.12.2018 12:21 6,4 C 97 % 1006,7 hPa 0,0 l/m 7,1 km/h (2 Bft) W 269 0 min 25 W/m 6,0 C 5,8 C 12,9 km/h (3 Bft)
22.12.2018 12:24 6,4 C 97 % 1006,6 hPa 0,0 l/m 6,0 km/h (2 Bft) W-SW 250 0 min 30 W/m 6,0 C 6,4 C 11,3 km/h (2 Bft)
22.12.2018 12:27 6,4 C 97 % 1006,7 hPa 0,0 l/m 3,7 km/h (1 Bft) W 269 0 min 30 W/m 6,0 C 6,4 C 9,7 km/h (2 Bft)
22.12.2018 12:30 6,4 C 97 % 1006,8 hPa 0,0 l/m 4,7 km/h (1 Bft) W-SW 253 0 min 35 W/m 6,0 C 6,4 C 8,0 km/h (2 Bft)
22.12.2018 12:33 6,4 C 97 % 1006,8 hPa 0,0 l/m 4,7 km/h (1 Bft) W-SW 253 0 min 39 W/m 6,0 C 6,4 C 8,0 km/h (2 Bft)
22.12.2018 12:36 6,4 C 97 % 1006,7 hPa 0,0 l/m 3,9 km/h (1 Bft) W-SW 253 0 min 46 W/m 6,0 C 6,4 C 6,4 km/h (2 Bft)
22.12.2018 12:39 6,4 C 97 % 1006,7 hPa 0,0 l/m 3,8 km/h (1 Bft) W-SW 254 0 min 53 W/m 6,0 C 6,4 C 6,4 km/h (2 Bft)
22.12.2018 12:42 6,4 C 97 % 1006,7 hPa 0,0 l/m 3,5 km/h (1 Bft) W-SW 254 0 min 54 W/m 6,0 C 6,4 C 6,4 km/h (2 Bft)
22.12.2018 12:45 6,4 C 97 % 1006,7 hPa 0,0 l/m 4,2 km/h (1 Bft) SW 227 0 min 51 W/m 6,0 C 6,4 C 9,7 km/h (2 Bft)
22.12.2018 12:48 6,5 C 97 % 1006,7 hPa 0,0 l/m 7,8 km/h (2 Bft) W 267 0 min 53 W/m 6,1 C 5,3 C 14,5 km/h (3 Bft)
22.12.2018 12:51 6,6 C 97 % 1006,7 hPa 0,0 l/m 7,5 km/h (2 Bft) W-SW 247 0 min 54 W/m 6,2 C 5,7 C 12,9 km/h (3 Bft)
22.12.2018 12:54 6,6 C 97 % 1006,7 hPa 0,0 l/m 5,4 km/h (2 Bft) W 263 0 min 65 W/m 6,2 C 6,6 C 11,3 km/h (2 Bft)
22.12.2018 12:57 6,6 C 97 % 1006,7 hPa 0,0 l/m 7,8 km/h (2 Bft) SW 236 0 min 76 W/m 6,2 C 5,4 C 14,5 km/h (3 Bft)
22.12.2018 13:00 6,6 C 97 % 1006,8 hPa 0,0 l/m 7,2 km/h (2 Bft) SW 215 0 min 77 W/m 6,2 C 5,9 C 12,9 km/h (3 Bft)
22.12.2018 13:03 6,6 C 97 % 1006,8 hPa 0,0 l/m 6,9 km/h (2 Bft) SW 223 0 min 86 W/m 6,2 C 6,2 C 9,7 km/h (2 Bft)
22.12.2018 13:06 6,7 C 97 % 1006,9 hPa 0,0 l/m 7,6 km/h (2 Bft) SW 229 0 min 83 W/m 6,3 C 5,7 C 12,9 km/h (3 Bft)
22.12.2018 13:09 6,7 C 97 % 1007,0 hPa 0,0 l/m 7,3 km/h (2 Bft) SW 215 0 min 65 W/m 6,3 C 6,0 C 11,3 km/h (2 Bft)
22.12.2018 13:12 6,7 C 97 % 1007,0 hPa 0,0 l/m 7,4 km/h (2 Bft) SW 221 0 min 63 W/m 6,3 C 5,9 C 9,7 km/h (2 Bft)
22.12.2018 13:15 6,7 C 97 % 1007,0 hPa 0,0 l/m 8,2 km/h (2 Bft) SW 232 0 min 62 W/m 6,3 C 5,2 C 12,9 km/h (3 Bft)
22.12.2018 13:18 6,7 C 97 % 1007,0 hPa 0,0 l/m 8,5 km/h (2 Bft) S-SW 206 0 min 58 W/m 6,3 C 5,0 C 16,1 km/h (3 Bft)
22.12.2018 13:21 6,7 C 97 % 1007,0 hPa 0,0 l/m 7,1 km/h (2 Bft) SW 227 0 min 44 W/m 6,3 C 6,1 C 11,3 km/h (2 Bft)
22.12.2018 13:24 6,7 C 97 % 1007,0 hPa 0,0 l/m 8,1 km/h (2 Bft) W-SW 237 0 min 42 W/m 6,3 C 5,3 C 14,5 km/h (3 Bft)
22.12.2018 13:27 6,7 C 97 % 1007,0 hPa 0,0 l/m 7,5 km/h (2 Bft) SW 229 0 min 40 W/m 6,3 C 5,8 C 9,7 km/h (2 Bft)
22.12.2018 13:30 6,7 C 97 % 1007,0 hPa 0,0 l/m 7,6 km/h (2 Bft) SW 217 0 min 39 W/m 6,3 C 5,7 C 12,9 km/h (3 Bft)
22.12.2018 13:33 6,8 C 97 % 1007,1 hPa 0,0 l/m 7,7 km/h (2 Bft) SW 233 0 min 35 W/m 6,4 C 5,7 C 16,1 km/h (3 Bft)
22.12.2018 13:36 6,8 C 97 % 1007,1 hPa 0,0 l/m 6,6 km/h (2 Bft) S-SW 213 0 min 37 W/m 6,4 C 6,7 C 9,7 km/h (2 Bft)
22.12.2018 13:39 6,8 C 97 % 1007,1 hPa 0,0 l/m 5,9 km/h (2 Bft) S-SW 213 0 min 40 W/m 6,4 C 6,8 C 8,0 km/h (2 Bft)
22.12.2018 13:42 6,8 C 97 % 1007,1 hPa 0,0 l/m 5,3 km/h (1 Bft) S-SW 213 0 min 40 W/m 6,4 C 6,8 C 8,0 km/h (2 Bft)
22.12.2018 13:45 6,8 C 97 % 1007,2 hPa 0,0 l/m 5,4 km/h (2 Bft) SW 227 0 min 37 W/m 6,4 C 6,8 C 8,0 km/h (2 Bft)
22.12.2018 13:48 6,8 C 97 % 1007,2 hPa 0,0 l/m 5,7 km/h (2 Bft) SW 233 0 min 37 W/m 6,4 C 6,8 C 9,7 km/h (2 Bft)
22.12.2018 13:51 6,9 C 97 % 1007,3 hPa 0,0 l/m 5,8 km/h (2 Bft) SW 223 0 min 40 W/m 6,5 C 6,9 C 9,7 km/h (2 Bft)
22.12.2018 13:54 6,9 C 97 % 1007,3 hPa 0,0 l/m 7,0 km/h (2 Bft) SW 227 0 min 39 W/m 6,5 C 6,4 C 11,3 km/h (2 Bft)
22.12.2018 13:57 6,9 C 97 % 1007,3 hPa 0,0 l/m 6,5 km/h (2 Bft) SW 215 0 min 32 W/m 6,5 C 6,8 C 9,7 km/h (2 Bft)
22.12.2018 14:00 6,9 C 97 % 1007,4 hPa 0,0 l/m 7,4 km/h (2 Bft) SW 228 0 min 21 W/m 6,5 C 6,1 C 11,3 km/h (2 Bft)
22.12.2018 14:03 6,9 C 97 % 1007,5 hPa 0,0 l/m 7,1 km/h (2 Bft) SW 214 0 min 21 W/m 6,5 C 6,3 C 11,3 km/h (2 Bft)
22.12.2018 14:06 6,9 C 97 % 1007,5 hPa 0,2 l/m 6,0 km/h (2 Bft) SW 216 0 min 18 W/m 6,5 C 6,9 C 9,7 km/h (2 Bft)
22.12.2018 14:09 6,9 C 97 % 1007,5 hPa 0,0 l/m 5,5 km/h (2 Bft) S-SW 196 0 min 14 W/m 6,5 C 6,9 C 9,7 km/h (2 Bft)
22.12.2018 14:12 7,0 C 97 % 1007,6 hPa 0,0 l/m 6,8 km/h (2 Bft) S-SW 211 0 min 12 W/m 6,6 C 6,7 C 9,7 km/h (2 Bft)
22.12.2018 14:15 7,0 C 97 % 1007,6 hPa 0,0 l/m 6,2 km/h (2 Bft) S-SW 212 0 min 11 W/m 6,6 C 7,0 C 8,0 km/h (2 Bft)
22.12.2018 14:18 7,0 C 97 % 1007,6 hPa 0,0 l/m 6,5 km/h (2 Bft) SW 215 0 min 11 W/m 6,6 C 6,9 C 9,7 km/h (2 Bft)
22.12.2018 14:21 7,0 C 97 % 1007,7 hPa 0,0 l/m 6,7 km/h (2 Bft) SW 230 0 min 11 W/m 6,6 C 6,8 C 14,5 km/h (3 Bft)
22.12.2018 14:24 7,1 C 97 % 1007,7 hPa 0,0 l/m 5,1 km/h (1 Bft) S-SW 213 0 min 12 W/m 6,7 C 7,1 C 8,0 km/h (2 Bft)
22.12.2018 14:27 7,1 C 97 % 1007,8 hPa 0,0 l/m 5,2 km/h (1 Bft) SW 233 0 min 11 W/m 6,7 C 7,1 C 8,0 km/h (2 Bft)
22.12.2018 14:30 7,1 C 97 % 1007,8 hPa 0,0 l/m 5,9 km/h (2 Bft) W-SW 244 0 min 9 W/m 6,7 C 7,1 C 14,5 km/h (3 Bft)
22.12.2018 14:33 7,1 C 97 % 1007,8 hPa 0,0 l/m 5,2 km/h (1 Bft) SW 221 0 min 7 W/m 6,7 C 7,1 C 11,3 km/h (2 Bft)
22.12.2018 14:36 7,1 C 97 % 1007,8 hPa 0,2 l/m 5,8 km/h (2 Bft) SW 225 0 min 7 W/m 6,7 C 7,1 C 14,5 km/h (3 Bft)
22.12.2018 14:39 7,1 C 97 % 1007,8 hPa 0,0 l/m 6,7 km/h (2 Bft) SW 227 0 min 5 W/m 6,7 C 6,9 C 11,3 km/h (2 Bft)
22.12.2018 14:42 7,1 C 97 % 1007,8 hPa 0,0 l/m 5,5 km/h (2 Bft) W-SW 241 0 min 5 W/m 6,7 C 7,1 C 12,9 km/h (3 Bft)
22.12.2018 14:45 7,1 C 97 % 1007,8 hPa 0,0 l/m 5,6 km/h (2 Bft) W-SW 254 0 min 0 W/m 6,7 C 7,1 C 9,7 km/h (2 Bft)
22.12.2018 14:48 7,1 C 97 % 1007,9 hPa 0,0 l/m 6,4 km/h (2 Bft) W-SW 253 0 min 0 W/m 6,7 C 7,1 C 14,5 km/h (3 Bft)
22.12.2018 14:51 7,1 C 97 % 1007,9 hPa 0,0 l/m 5,4 km/h (2 Bft) SW 214 0 min 0 W/m 6,7 C 7,1 C 9,7 km/h (2 Bft)
22.12.2018 14:54 7,0 C 97 % 1007,9 hPa 0,2 l/m 4,6 km/h (1 Bft) SW 217 0 min 0 W/m 6,6 C 7,0 C 8,0 km/h (2 Bft)
22.12.2018 14:57 7,0 C 97 % 1008,0 hPa 0,0 l/m 4,8 km/h (1 Bft) W-SW 253 0 min 0 W/m 6,6 C 7,0 C 8,0 km/h (2 Bft)
22.12.2018 15:00 6,9 C 97 % 1008,0 hPa 0,0 l/m 3,3 km/h (1 Bft) W-SW 253 0 min 0 W/m 6,5 C 6,9 C 6,4 km/h (2 Bft)
22.12.2018 15:03 6,9 C 97 % 1008,0 hPa 0,0 l/m 3,5 km/h (1 Bft) W-SW 253 0 min 0 W/m 6,5 C 6,9 C 6,4 km/h (2 Bft)
22.12.2018 15:06 6,9 C 97 % 1008,0 hPa 0,2 l/m 5,4 km/h (2 Bft) SW 227 0 min 0 W/m 6,5 C 6,9 C 9,7 km/h (2 Bft)
22.12.2018 15:09 6,8 C 97 % 1008,0 hPa 0,2 l/m 5,0 km/h (1 Bft) SW 229 0 min 0 W/m 6,4 C 6,8 C 9,7 km/h (2 Bft)
22.12.2018 15:12 6,8 C 97 % 1008,0 hPa 0,0 l/m 7,8 km/h (2 Bft) S-SW 211 0 min 0 W/m 6,4 C 5,6 C 12,9 km/h (3 Bft)
22.12.2018 15:15 6,8 C 97 % 1008,1 hPa 0,2 l/m 5,8 km/h (2 Bft) SW 221 0 min 0 W/m 6,4 C 6,8 C 9,7 km/h (2 Bft)
22.12.2018 15:18 6,7 C 97 % 1008,1 hPa 0,2 l/m 6,8 km/h (2 Bft) SW 217 0 min 0 W/m 6,3 C 6,4 C 9,7 km/h (2 Bft)
22.12.2018 15:21 6,7 C 97 % 1008,1 hPa 0,2 l/m 6,4 km/h (2 Bft) SW 215 0 min 0 W/m 6,3 C 6,7 C 9,7 km/h (2 Bft)
22.12.2018 15:24 6,7 C 97 % 1008,1 hPa 0,2 l/m 7,4 km/h (2 Bft) SW 216 0 min 0 W/m 6,3 C 5,9 C 11,3 km/h (2 Bft)
22.12.2018 15:27 6,6 C 97 % 1008,2 hPa 0,2 l/m 7,3 km/h (2 Bft) S-SW 213 0 min 0 W/m 6,2 C 5,8 C 9,7 km/h (2 Bft)
22.12.2018 15:30 6,6 C 97 % 1008,2 hPa 0,0 l/m 6,7 km/h (2 Bft) SW 227 0 min 0 W/m 6,2 C 6,4 C 11,3 km/h (2 Bft)
22.12.2018 15:33 6,6 C 97 % 1008,2 hPa 0,2 l/m 5,1 km/h (1 Bft) W-SW 248 0 min 5 W/m 6,2 C 6,6 C 11,3 km/h (2 Bft)
22.12.2018 15:36 6,6 C 97 % 1008,3 hPa 0,0 l/m 5,8 km/h (2 Bft) SW 217 0 min 5 W/m 6,2 C 6,6 C 9,7 km/h (2 Bft)
22.12.2018 15:39 6,6 C 97 % 1008,3 hPa 0,0 l/m 5,7 km/h (2 Bft) SW 217 0 min 5 W/m 6,2 C 6,6 C 9,7 km/h (2 Bft)
22.12.2018 15:42 6,6 C 97 % 1008,3 hPa 0,0 l/m 4,7 km/h (1 Bft) SW 217 0 min 5 W/m 6,2 C 6,6 C 8,0 km/h (2 Bft)
22.12.2018 15:45 6,6 C 97 % 1008,3 hPa 0,0 l/m 5,1 km/h (1 Bft) SW 217 0 min 7 W/m 6,2 C 6,6 C 8,0 km/h (2 Bft)
22.12.2018 15:48 6,6 C 97 % 1008,3 hPa 0,0 l/m 4,3 km/h (1 Bft) SW 217 0 min 5 W/m 6,2 C 6,6 C 6,4 km/h (2 Bft)
22.12.2018 15:51 6,6 C 97 % 1008,3 hPa 0,2 l/m 3,8 km/h (1 Bft) SW 217 0 min 5 W/m 6,2 C 6,6 C 6,4 km/h (2 Bft)
22.12.2018 15:54 6,5 C 97 % 1008,4 hPa 0,0 l/m 3,1 km/h (1 Bft) SW 217 0 min 0 W/m 6,1 C 6,5 C 4,8 km/h (1 Bft)
22.12.2018 15:57 6,5 C 97 % 1008,4 hPa 0,0 l/m 2,7 km/h (1 Bft) SW 217 0 min 0 W/m 6,1 C 6,5 C 4,8 km/h (1 Bft)
22.12.2018 16:00 6,5 C 97 % 1008,4 hPa 0,0 l/m 2,8 km/h (1 Bft) SW 217 0 min 0 W/m 6,1 C 6,5 C 4,8 km/h (1 Bft)
22.12.2018 16:03 6,5 C 97 % 1008,5 hPa 0,0 l/m 2,0 km/h (1 Bft) SW 217 0 min 0 W/m 6,1 C 6,5 C 4,8 km/h (1 Bft)
22.12.2018 16:06 6,5 C 97 % 1008,6 hPa 0,0 l/m 1,9 km/h (1 Bft) SW 217 0 min 0 W/m 6,1 C 6,5 C 3,2 km/h (1 Bft)
22.12.2018 16:09 6,5 C 97 % 1008,6 hPa 0,0 l/m 0,5 km/h (0 Bft) SW 217 0 min 0 W/m 6,1 C 6,5 C 3,2 km/h (1 Bft)
22.12.2018 16:12 6,5 C 97 % 1008,7 hPa 0,0 l/m 0,8 km/h (0 Bft) SW 217 0 min 0 W/m 6,1 C 6,5 C 1,6 km/h (1 Bft)
22.12.2018 16:15 6,5 C 97 % 1008,7 hPa 0,0 l/m 0,3 km/h (0 Bft) SW 217 0 min 0 W/m 6,1 C 6,5 C 1,6 km/h (1 Bft)
22.12.2018 16:18 6,5 C 97 % 1008,8 hPa 0,0 l/m 1,1 km/h (1 Bft) SW 217 0 min 0 W/m 6,1 C 6,5 C 1,6 km/h (1 Bft)
22.12.2018 16:21 6,4 C 97 % 1008,9 hPa 0,0 l/m 0,8 km/h (0 Bft) SW 217 0 min 0 W/m 6,0 C 6,4 C 1,6 km/h (1 Bft)
22.12.2018 16:24 6,5 C 97 % 1008,8 hPa 0,0 l/m 0,5 km/h (0 Bft) SW 217 0 min 0 W/m 6,1 C 6,5 C 3,2 km/h (1 Bft)
22.12.2018 16:27 6,4 C 97 % 1008,9 hPa 0,0 l/m 1,2 km/h (1 Bft) SW 217 0 min 0 W/m 6,0 C 6,4 C 3,2 km/h (1 Bft)
22.12.2018 16:30 6,4 C 97 % 1009,1 hPa 0,0 l/m 2,0 km/h (1 Bft) SW 217 0 min 0 W/m 6,0 C 6,4 C 4,8 km/h (1 Bft)
22.12.2018 16:33 6,4 C 97 % 1009,1 hPa 0,0 l/m 1,7 km/h (1 Bft) SW 217 0 min 0 W/m 6,0 C 6,4 C 4,8 km/h (1 Bft)
22.12.2018 16:36 6,4 C 97 % 1009,1 hPa 0,0 l/m 1,3 km/h (1 Bft) SW 217 0 min 0 W/m 6,0 C 6,4 C 4,8 km/h (1 Bft)
22.12.2018 16:39 6,4 C 97 % 1009,2 hPa 0,0 l/m 2,2 km/h (1 Bft) SW 217 0 min 0 W/m 6,0 C 6,4 C 3,2 km/h (1 Bft)
22.12.2018 16:42 6,4 C 97 % 1009,1 hPa 0,0 l/m 1,1 km/h (1 Bft) SW 217 0 min 0 W/m 6,0 C 6,4 C 3,2 km/h (1 Bft)
22.12.2018 16:45 6,4 C 97 % 1009,2 hPa 0,0 l/m 2,3 km/h (1 Bft) SW 217 0 min 0 W/m 6,0 C 6,4 C 4,8 km/h (1 Bft)
22.12.2018 16:48 6,4 C 97 % 1009,2 hPa 0,0 l/m 2,8 km/h (1 Bft) SW 217 0 min 0 W/m 6,0 C 6,4 C 4,8 km/h (1 Bft)
22.12.2018 16:51 6,4 C 97 % 1009,3 hPa 0,0 l/m 1,9 km/h (1 Bft) SW 217 0 min 0 W/m 6,0 C 6,4 C 4,8 km/h (1 Bft)
22.12.2018 16:54 6,4 C 97 % 1009,3 hPa 0,0 l/m 1,4 km/h (1 Bft) SW 217 0 min 0 W/m 6,0 C 6,4 C 4,8 km/h (1 Bft)
22.12.2018 16:57 6,4 C 97 % 1009,3 hPa 0,0 l/m 2,5 km/h (1 Bft) SW 217 0 min 0 W/m 6,0 C 6,4 C 4,8 km/h (1 Bft)
22.12.2018 17:00 6,4 C 97 % 1009,4 hPa 0,0 l/m 0,9 km/h (0 Bft) SW 217 0 min 0 W/m 6,0 C 6,4 C 1,6 km/h (1 Bft)
22.12.2018 17:03 6,4 C 97 % 1009,4 hPa 0,0 l/m 1,1 km/h (1 Bft) SW 217 0 min 0 W/m 6,0 C 6,4 C 3,2 km/h (1 Bft)
22.12.2018 17:06 6,4 C 97 % 1009,5 hPa 0,0 l/m 1,5 km/h (1 Bft) SW 217 0 min 0 W/m 6,0 C 6,4 C 3,2 km/h (1 Bft)
22.12.2018 17:09 6,4 C 97 % 1009,5 hPa 0,0 l/m 2,6 km/h (1 Bft) SW 217 0 min 0 W/m 6,0 C 6,4 C 4,8 km/h (1 Bft)
22.12.2018 17:12 6,4 C 97 % 1009,6 hPa 0,0 l/m 1,9 km/h (1 Bft) SW 217 0 min 0 W/m 6,0 C 6,4 C 3,2 km/h (1 Bft)
22.12.2018 17:15 6,3 C 97 % 1009,6 hPa 0,0 l/m 1,6 km/h (1 Bft) SW 217 0 min 0 W/m 5,9 C 6,3 C 3,2 km/h (1 Bft)
22.12.2018 17:18 6,3 C 97 % 1009,7 hPa 0,2 l/m 2,5 km/h (1 Bft) SW 217 0 min 0 W/m 5,9 C 6,3 C 4,8 km/h (1 Bft)
22.12.2018 17:21 6,3 C 97 % 1009,8 hPa 0,0 l/m 2,0 km/h (1 Bft) SW 217 0 min 0 W/m 5,9 C 6,3 C 4,8 km/h (1 Bft)
22.12.2018 17:24 6,3 C 97 % 1009,9 hPa 0,0 l/m 1,6 km/h (1 Bft) SW 217 0 min 0 W/m 5,9 C 6,3 C 3,2 km/h (1 Bft)
22.12.2018 17:27 6,3 C 97 % 1010,0 hPa 0,0 l/m 2,2 km/h (1 Bft) SW 217 0 min 0 W/m 5,9 C 6,3 C 4,8 km/h (1 Bft)
22.12.2018 17:30 6,2 C 97 % 1010,0 hPa 0,0 l/m 1,5 km/h (1 Bft) SW 217 0 min 0 W/m 5,8 C 6,2 C 3,2 km/h (1 Bft)
22.12.2018 17:33 6,2 C 97 % 1010,1 hPa 0,0 l/m 3,5 km/h (1 Bft) W-SW 244 0 min 0 W/m 5,8 C 6,2 C 6,4 km/h (2 Bft)
22.12.2018 17:36 6,2 C 97 % 1010,2 hPa 0,0 l/m 2,9 km/h (1 Bft) W 272 0 min 0 W/m 5,8 C 6,2 C 6,4 km/h (2 Bft)
22.12.2018 17:39 6,2 C 97 % 1010,3 hPa 0,0 l/m 4,7 km/h (1 Bft) W-NW 300 0 min 0 W/m 5,8 C 6,2 C 8,0 km/h (2 Bft)
22.12.2018 17:42 6,1 C 97 % 1010,3 hPa 0,0 l/m 3,2 km/h (1 Bft) W-NW 296 0 min 0 W/m 5,7 C 6,1 C 8,0 km/h (2 Bft)
22.12.2018 17:45 6,1 C 97 % 1010,4 hPa 0,0 l/m 2,8 km/h (1 Bft) W-NW 296 0 min 0 W/m 5,7 C 6,1 C 4,8 km/h (1 Bft)
22.12.2018 17:48 6,1 C 97 % 1010,4 hPa 0,0 l/m 3,5 km/h (1 Bft) W-NW 298 0 min 0 W/m 5,7 C 6,1 C 11,3 km/h (2 Bft)
22.12.2018 17:51 6,1 C 97 % 1010,4 hPa 0,0 l/m 2,1 km/h (1 Bft) W-NW 298 0 min 0 W/m 5,7 C 6,1 C 4,8 km/h (1 Bft)
22.12.2018 17:54 6,2 C 97 % 1010,5 hPa 0,0 l/m 2,1 km/h (1 Bft) W-NW 298 0 min 0 W/m 5,8 C 6,2 C 3,2 km/h (1 Bft)
22.12.2018 17:57 6,1 C 97 % 1010,6 hPa 0,0 l/m 2,1 km/h (1 Bft) W-NW 298 0 min 0 W/m 5,7 C 6,1 C 4,8 km/h (1 Bft)
22.12.2018 18:00 6,2 C 97 % 1010,6 hPa 0,0 l/m 2,2 km/h (1 Bft) W-NW 298 0 min 0 W/m 5,8 C 6,2 C 4,8 km/h (1 Bft)
22.12.2018 18:03 6,2 C 97 % 1010,6 hPa 0,0 l/m 3,7 km/h (1 Bft) W-NW 298 0 min 0 W/m 5,8 C 6,2 C 4,8 km/h (1 Bft)
22.12.2018 18:06 6,2 C 97 % 1010,6 hPa 0,0 l/m 2,0 km/h (1 Bft) W-NW 298 0 min 0 W/m 5,8 C 6,2 C 4,8 km/h (1 Bft)
22.12.2018 18:09 6,2 C 97 % 1010,6 hPa 0,0 l/m 3,1 km/h (1 Bft) W-NW 292 0 min 0 W/m 5,8 C 6,2 C 6,4 km/h (2 Bft)
22.12.2018 18:12 6,2 C 97 % 1010,7 hPa 0,0 l/m 2,4 km/h (1 Bft) W-NW 292 0 min 0 W/m 5,8 C 6,2 C 3,2 km/h (1 Bft)
22.12.2018 18:15 6,2 C 97 % 1010,7 hPa 0,0 l/m 3,8 km/h (1 Bft) W-NW 290 0 min 0 W/m 5,8 C 6,2 C 6,4 km/h (2 Bft)
22.12.2018 18:18 6,2 C 97 % 1010,7 hPa 0,0 l/m 4,8 km/h (1 Bft) W 279 0 min 0 W/m 5,8 C 6,2 C 11,3 km/h (2 Bft)
22.12.2018 18:21 6,2 C 97 % 1010,7 hPa 0,0 l/m 4,9 km/h (1 Bft) W 278 0 min 0 W/m 5,8 C 6,2 C 9,7 km/h (2 Bft)
22.12.2018 18:24 6,2 C 97 % 1010,8 hPa 0,0 l/m 4,7 km/h (1 Bft) W 278 0 min 0 W/m 5,8 C 6,2 C 9,7 km/h (2 Bft)
22.12.2018 18:27 6,2 C 97 % 1010,8 hPa 0,0 l/m 5,2 km/h (1 Bft) W 265 0 min 0 W/m 5,8 C 6,2 C 11,3 km/h (2 Bft)
22.12.2018 18:30 6,2 C 97 % 1010,9 hPa 0,0 l/m 5,6 km/h (2 Bft) W 272 0 min 0 W/m 5,8 C 6,2 C 11,3 km/h (2 Bft)
22.12.2018 18:33 6,2 C 97 % 1010,9 hPa 0,0 l/m 5,9 km/h (2 Bft) W 271 0 min 0 W/m 5,8 C 6,2 C 11,3 km/h (2 Bft)
22.12.2018 18:36 6,2 C 97 % 1011,0 hPa 0,0 l/m 5,0 km/h (1 Bft) W 275 0 min 0 W/m 5,8 C 6,2 C 11,3 km/h (2 Bft)
22.12.2018 18:39 6,2 C 97 % 1011,0 hPa 0,0 l/m 6,1 km/h (2 Bft) W 259 0 min 0 W/m 5,8 C 6,2 C 9,7 km/h (2 Bft)
22.12.2018 18:42 6,2 C 97 % 1011,1 hPa 0,0 l/m 5,6 km/h (2 Bft) W 265 0 min 0 W/m 5,8 C 6,2 C 11,3 km/h (2 Bft)
22.12.2018 18:45 6,1 C 97 % 1011,2 hPa 0,0 l/m 3,9 km/h (1 Bft) W 261 0 min 0 W/m 5,7 C 6,1 C 6,4 km/h (2 Bft)
22.12.2018 18:48 6,1 C 97 % 1011,2 hPa 0,0 l/m 3,9 km/h (1 Bft) W 261 0 min 0 W/m 5,7 C 6,1 C 6,4 km/h (2 Bft)
22.12.2018 18:51 6,1 C 97 % 1011,3 hPa 0,0 l/m 4,9 km/h (1 Bft) W 262 0 min 0 W/m 5,7 C 6,1 C 11,3 km/h (2 Bft)
22.12.2018 18:54 6,1 C 97 % 1011,4 hPa 0,0 l/m 5,1 km/h (1 Bft) W-SW 246 0 min 0 W/m 5,7 C 6,1 C 11,3 km/h (2 Bft)
22.12.2018 18:57 6,1 C 97 % 1011,4 hPa 0,0 l/m 7,7 km/h (2 Bft) W-SW 255 0 min 0 W/m 5,7 C 5,0 C 11,3 km/h (2 Bft)
22.12.2018 19:00 6,1 C 97 % 1011,5 hPa 0,0 l/m 7,8 km/h (2 Bft) W 259 0 min 0 W/m 5,7 C 4,9 C 12,9 km/h (3 Bft)
22.12.2018 19:03 6,1 C 97 % 1011,5 hPa 0,0 l/m 7,7 km/h (2 Bft) W-SW 247 0 min 0 W/m 5,7 C 5,0 C 12,9 km/h (3 Bft)
22.12.2018 19:06 6,1 C 97 % 1011,6 hPa 0,0 l/m 4,6 km/h (1 Bft) W-SW 247 0 min 0 W/m 5,7 C 6,1 C 6,4 km/h (2 Bft)
22.12.2018 19:09 6,1 C 97 % 1011,6 hPa 0,0 l/m 6,3 km/h (2 Bft) W-SW 256 0 min 0 W/m 5,7 C 6,1 C 12,9 km/h (3 Bft)
22.12.2018 19:12 6,1 C 97 % 1011,6 hPa 0,0 l/m 4,7 km/h (1 Bft) W-SW 254 0 min 0 W/m 5,7 C 6,1 C 8,0 km/h (2 Bft)
22.12.2018 19:15 6,1 C 97 % 1011,6 hPa 0,0 l/m 4,0 km/h (1 Bft) W-SW 252 0 min 0 W/m 5,7 C 6,1 C 8,0 km/h (2 Bft)
22.12.2018 19:18 6,1 C 97 % 1011,8 hPa 0,0 l/m 5,8 km/h (2 Bft) SW 234 0 min 0 W/m 5,7 C 6,1 C 8,0 km/h (2 Bft)
22.12.2018 19:21 6,0 C 97 % 1011,8 hPa 0,0 l/m 5,1 km/h (1 Bft) W-SW 239 0 min 0 W/m 5,6 C 6,0 C 8,0 km/h (2 Bft)
22.12.2018 19:24 6,0 C 97 % 1011,9 hPa 0,0 l/m 3,5 km/h (1 Bft) W-SW 239 0 min 0 W/m 5,6 C 6,0 C 6,4 km/h (2 Bft)
22.12.2018 19:27 6,0 C 97 % 1011,9 hPa 0,0 l/m 4,4 km/h (1 Bft) W-SW 239 0 min 0 W/m 5,6 C 6,0 C 9,7 km/h (2 Bft)
22.12.2018 19:30 5,9 C 97 % 1011,9 hPa 0,0 l/m 5,2 km/h (1 Bft) SW 226 0 min 0 W/m 5,5 C 5,9 C 9,7 km/h (2 Bft)
22.12.2018 19:33 5,9 C 97 % 1012,0 hPa 0,0 l/m 7,1 km/h (2 Bft) SW 218 0 min 0 W/m 5,5 C 5,3 C 14,5 km/h (3 Bft)
22.12.2018 19:36 5,9 C 97 % 1012,1 hPa 0,0 l/m 7,5 km/h (2 Bft) W-SW 254 0 min 0 W/m 5,5 C 5,0 C 12,9 km/h (3 Bft)
22.12.2018 19:39 5,9 C 97 % 1012,1 hPa 0,0 l/m 8,2 km/h (2 Bft) W-SW 249 0 min 0 W/m 5,5 C 4,4 C 14,5 km/h (3 Bft)
22.12.2018 19:42 5,9 C 97 % 1012,1 hPa 0,0 l/m 10,2 km/h (2 Bft) W 268 0 min 0 W/m 5,5 C 2,9 C 14,5 km/h (3 Bft)
22.12.2018 19:45 5,9 C 97 % 1012,1 hPa 0,0 l/m 6,5 km/h (2 Bft) W 277 0 min 0 W/m 5,5 C 5,8 C 11,3 km/h (2 Bft)
22.12.2018 19:48 5,9 C 97 % 1012,1 hPa 0,0 l/m 7,9 km/h (2 Bft) W-NW 283 0 min 0 W/m 5,5 C 4,6 C 14,5 km/h (3 Bft)
22.12.2018 19:51 5,9 C 97 % 1012,2 hPa 0,0 l/m 6,6 km/h (2 Bft) W 261 0 min 0 W/m 5,5 C 5,8 C 16,1 km/h (3 Bft)
22.12.2018 19:54 5,9 C 97 % 1012,2 hPa 0,0 l/m 8,0 km/h (2 Bft) W-SW 240 0 min 0 W/m 5,5 C 4,5 C 12,9 km/h (3 Bft)
22.12.2018 19:57 6,0 C 97 % 1012,2 hPa 0,0 l/m 7,0 km/h (2 Bft) W-SW 257 0 min 0 W/m 5,6 C 5,5 C 11,3 km/h (2 Bft)
22.12.2018 20:00 6,0 C 97 % 1012,2 hPa 0,0 l/m 8,5 km/h (2 Bft) W-SW 245 0 min 0 W/m 5,6 C 4,3 C 14,5 km/h (3 Bft)
22.12.2018 20:03 6,0 C 97 % 1012,2 hPa 0,0 l/m 8,6 km/h (2 Bft) W-SW 246 0 min 0 W/m 5,6 C 4,2 C 16,1 km/h (3 Bft)
22.12.2018 20:06 6,0 C 97 % 1012,2 hPa 0,0 l/m 6,9 km/h (2 Bft) W 271 0 min 0 W/m 5,6 C 5,6 C 11,3 km/h (2 Bft)
22.12.2018 20:09 6,0 C 97 % 1012,3 hPa 0,0 l/m 7,4 km/h (2 Bft) SW 221 0 min 0 W/m 5,6 C 5,1 C 12,9 km/h (3 Bft)
22.12.2018 20:12 6,0 C 97 % 1012,3 hPa 0,0 l/m 7,7 km/h (2 Bft) W-SW 251 0 min 0 W/m 5,6 C 4,9 C 14,5 km/h (3 Bft)
22.12.2018 20:15 6,0 C 97 % 1012,3 hPa 0,0 l/m 5,2 km/h (1 Bft) SW 219 0 min 0 W/m 5,6 C 6,0 C 11,3 km/h (2 Bft)
22.12.2018 20:18 6,0 C 97 % 1012,3 hPa 0,0 l/m 6,7 km/h (2 Bft) SW 231 0 min 0 W/m 5,6 C 5,8 C 11,3 km/h (2 Bft)
22.12.2018 20:21 6,0 C 97 % 1012,4 hPa 0,0 l/m 7,0 km/h (2 Bft) S-SW 206 0 min 0 W/m 5,6 C 5,5 C 16,1 km/h (3 Bft)
22.12.2018 20:24 6,0 C 97 % 1012,4 hPa 0,0 l/m 8,6 km/h (2 Bft) SW 231 0 min 0 W/m 5,6 C 4,2 C 14,5 km/h (3 Bft)
22.12.2018 20:27 6,0 C 97 % 1012,5 hPa 0,0 l/m 8,2 km/h (2 Bft) W-SW 246 0 min 0 W/m 5,6 C 4,5 C 16,1 km/h (3 Bft)
22.12.2018 20:30 6,0 C 97 % 1012,5 hPa 0,0 l/m 6,0 km/h (2 Bft) W-SW 244 0 min 0 W/m 5,6 C 6,0 C 11,3 km/h (2 Bft)
22.12.2018 20:33 6,0 C 97 % 1012,5 hPa 0,0 l/m 9,3 km/h (2 Bft) SW 231 0 min 0 W/m 5,6 C 3,7 C 16,1 km/h (3 Bft)
22.12.2018 20:36 6,1 C 97 % 1012,5 hPa 0,0 l/m 6,7 km/h (2 Bft) SW 232 0 min 0 W/m 5,7 C 5,9 C 12,9 km/h (3 Bft)
22.12.2018 20:39 6,1 C 97 % 1012,6 hPa 0,0 l/m 6,3 km/h (2 Bft) W-SW 245 0 min 0 W/m 5,7 C 6,1 C 12,9 km/h (3 Bft)
22.12.2018 20:42 6,1 C 97 % 1012,5 hPa 0,0 l/m 10,4 km/h (2 Bft) W-SW 241 0 min 0 W/m 5,7 C 3,0 C 17,7 km/h (3 Bft)
22.12.2018 20:45 6,0 C 97 % 1012,6 hPa 0,0 l/m 6,5 km/h (2 Bft) SW 215 0 min 0 W/m 5,6 C 5,9 C 12,9 km/h (3 Bft)
22.12.2018 20:48 6,0 C 97 % 1012,6 hPa 0,0 l/m 7,1 km/h (2 Bft) SW 235 0 min 0 W/m 5,6 C 5,4 C 16,1 km/h (3 Bft)
22.12.2018 20:51 5,9 C 97 % 1012,6 hPa 0,0 l/m 7,0 km/h (2 Bft) W-SW 246 0 min 0 W/m 5,5 C 5,4 C 16,1 km/h (3 Bft)
22.12.2018 20:54 5,9 C 97 % 1012,6 hPa 0,0 l/m 8,0 km/h (2 Bft) SW 219 0 min 0 W/m 5,5 C 4,5 C 14,5 km/h (3 Bft)
22.12.2018 20:57 5,9 C 97 % 1012,6 hPa 0,0 l/m 9,0 km/h (2 Bft) SW 234 0 min 0 W/m 5,5 C 3,8 C 12,9 km/h (3 Bft)
22.12.2018 21:00 5,9 C 97 % 1012,6 hPa 0,0 l/m 7,1 km/h (2 Bft) W-SW 239 0 min 0 W/m 5,5 C 5,3 C 12,9 km/h (3 Bft)
22.12.2018 21:03 5,9 C 97 % 1012,5 hPa 0,0 l/m 7,4 km/h (2 Bft) SW 215 0 min 0 W/m 5,5 C 5,0 C 12,9 km/h (3 Bft)
22.12.2018 21:06 5,9 C 97 % 1012,5 hPa 0,0 l/m 8,5 km/h (2 Bft) S 189 0 min 0 W/m 5,5 C 4,2 C 14,5 km/h (3 Bft)
22.12.2018 21:09 5,9 C 97 % 1012,5 hPa 0,0 l/m 8,7 km/h (2 Bft) SW 217 0 min 0 W/m 5,5 C 4,0 C 14,5 km/h (3 Bft)
22.12.2018 21:12 5,9 C 97 % 1012,5 hPa 0,0 l/m 6,9 km/h (2 Bft) SW 216 0 min 0 W/m 5,5 C 5,5 C 14,5 km/h (3 Bft)
22.12.2018 21:15 5,9 C 97 % 1012,5 hPa 0,0 l/m 8,3 km/h (2 Bft) S-SW 212 0 min 0 W/m 5,5 C 4,3 C 12,9 km/h (3 Bft)
22.12.2018 21:18 5,9 C 97 % 1012,6 hPa 0,0 l/m 6,7 km/h (2 Bft) SW 215 0 min 0 W/m 5,5 C 5,7 C 9,7 km/h (2 Bft)
22.12.2018 21:21 5,9 C 97 % 1012,7 hPa 0,0 l/m 9,8 km/h (2 Bft) S-SW 213 0 min 0 W/m 5,5 C 3,2 C 16,1 km/h (3 Bft)
22.12.2018 21:24 5,9 C 97 % 1012,7 hPa 0,0 l/m 11,3 km/h (2 Bft) SW 236 0 min 0 W/m 5,5 C 2,2 C 17,7 km/h (3 Bft)
22.12.2018 21:27 5,9 C 97 % 1012,7 hPa 0,0 l/m 11,1 km/h (2 Bft) W-SW 239 0 min 0 W/m 5,5 C 2,3 C 16,1 km/h (3 Bft)
22.12.2018 21:30 5,9 C 97 % 1012,7 hPa 0,0 l/m 7,7 km/h (2 Bft) SW 219 0 min 0 W/m 5,5 C 4,8 C 16,1 km/h (3 Bft)
22.12.2018 21:33 5,9 C 97 % 1012,6 hPa 0,0 l/m 7,8 km/h (2 Bft) SW 229 0 min 0 W/m 5,5 C 4,7 C 14,5 km/h (3 Bft)
22.12.2018 21:36 5,9 C 97 % 1012,6 hPa 0,0 l/m 7,7 km/h (2 Bft) W-SW 238 0 min 0 W/m 5,5 C 4,8 C 16,1 km/h (3 Bft)
22.12.2018 21:39 5,9 C 97 % 1012,6 hPa 0,0 l/m 8,7 km/h (2 Bft) W 267 0 min 0 W/m 5,5 C 4,0 C 17,7 km/h (3 Bft)
22.12.2018 21:42 5,9 C 97 % 1012,7 hPa 0,0 l/m 9,8 km/h (2 Bft) W-SW 257 0 min 0 W/m 5,5 C 3,2 C 16,1 km/h (3 Bft)
22.12.2018 21:45 5,9 C 97 % 1012,7 hPa 0,0 l/m 9,7 km/h (2 Bft) SW 223 0 min 0 W/m 5,5 C 3,3 C 14,5 km/h (3 Bft)
22.12.2018 21:48 5,9 C 97 % 1012,8 hPa 0,0 l/m 8,2 km/h (2 Bft) SW 224 0 min 0 W/m 5,5 C 4,4 C 16,1 km/h (3 Bft)
22.12.2018 21:51 6,0 C 97 % 1012,8 hPa 0,0 l/m 10,2 km/h (2 Bft) S-SW 194 0 min 0 W/m 5,6 C 3,0 C 14,5 km/h (3 Bft)
22.12.2018 21:54 6,1 C 97 % 1012,8 hPa 0,0 l/m 10,4 km/h (2 Bft) SW 221 0 min 0 W/m 5,7 C 3,0 C 19,3 km/h (3 Bft)
22.12.2018 21:57 6,1 C 97 % 1012,8 hPa 0,0 l/m 9,9 km/h (2 Bft) SW 229 0 min 0 W/m 5,7 C 3,4 C 17,7 km/h (3 Bft)
22.12.2018 22:00 6,1 C 97 % 1012,9 hPa 0,0 l/m 9,8 km/h (2 Bft) SW 231 0 min 0 W/m 5,7 C 3,4 C 20,9 km/h (4 Bft)
22.12.2018 22:03 6,2 C 97 % 1012,8 hPa 0,0 l/m 12,3 km/h (2 Bft) S-SW 207 0 min 0 W/m 5,8 C 2,0 C 24,1 km/h (4 Bft)
22.12.2018 22:06 6,2 C 97 % 1012,8 hPa 0,0 l/m 10,4 km/h (2 Bft) S-SW 206 0 min 0 W/m 5,8 C 3,1 C 17,7 km/h (3 Bft)
22.12.2018 22:09 6,2 C 97 % 1012,9 hPa 0,0 l/m 11,9 km/h (2 Bft) S-SW 202 0 min 0 W/m 5,8 C 2,2 C 17,7 km/h (3 Bft)
22.12.2018 22:12 6,3 C 97 % 1012,9 hPa 0,0 l/m 8,7 km/h (2 Bft) SW 228 0 min 0 W/m 5,9 C 4,4 C 16,1 km/h (3 Bft)
22.12.2018 22:15 6,3 C 97 % 1012,9 hPa 0,0 l/m 11,1 km/h (2 Bft) W-SW 240 0 min 0 W/m 5,9 C 2,8 C 19,3 km/h (3 Bft)
22.12.2018 22:18 6,3 C 97 % 1013,0 hPa 0,0 l/m 10,7 km/h (2 Bft) SW 223 0 min 0 W/m 5,9 C 3,0 C 16,1 km/h (3 Bft)
22.12.2018 22:21 6,3 C 97 % 1013,0 hPa 0,0 l/m 12,0 km/h (2 Bft) S-SW 213 0 min 0 W/m 5,9 C 2,3 C 19,3 km/h (3 Bft)
22.12.2018 22:24 6,2 C 97 % 1013,1 hPa 0,0 l/m 11,9 km/h (2 Bft) SW 236 0 min 0 W/m 5,8 C 2,2 C 20,9 km/h (4 Bft)
22.12.2018 22:27 6,2 C 97 % 1013,1 hPa 0,0 l/m 11,8 km/h (2 Bft) SW 223 0 min 0 W/m 5,8 C 2,3 C 16,1 km/h (3 Bft)
22.12.2018 22:30 6,2 C 97 % 1013,1 hPa 0,0 l/m 12,1 km/h (2 Bft) SW 235 0 min 0 W/m 5,8 C 2,1 C 19,3 km/h (3 Bft)
22.12.2018 22:33 6,1 C 97 % 1013,0 hPa 0,0 l/m 11,2 km/h (2 Bft) SW 221 0 min 0 W/m 5,7 C 2,5 C 14,5 km/h (3 Bft)
22.12.2018 22:36 6,1 C 97 % 1013,1 hPa 0,0 l/m 11,6 km/h (2 Bft) W-SW 245 0 min 0 W/m 5,7 C 2,3 C 17,7 km/h (3 Bft)
22.12.2018 22:39 6,1 C 97 % 1013,0 hPa 0,0 l/m 11,4 km/h (2 Bft) SW 215 0 min 0 W/m 5,7 C 2,4 C 17,7 km/h (3 Bft)
22.12.2018 22:42 6,1 C 97 % 1013,0 hPa 0,0 l/m 11,3 km/h (2 Bft) SW 231 0 min 0 W/m 5,7 C 2,4 C 19,3 km/h (3 Bft)
22.12.2018 22:45 6,1 C 97 % 1013,1 hPa 0,0 l/m 13,5 km/h (3 Bft) SW 223 0 min 0 W/m 5,7 C 1,2 C 22,5 km/h (4 Bft)
22.12.2018 22:48 6,1 C 97 % 1013,1 hPa 0,0 l/m 13,7 km/h (3 Bft) SW 234 0 min 0 W/m 5,7 C 1,1 C 20,9 km/h (4 Bft)
22.12.2018 22:51 6,1 C 97 % 1013,2 hPa 0,0 l/m 13,6 km/h (3 Bft) SW 236 0 min 0 W/m 5,7 C 1,1 C 20,9 km/h (4 Bft)
22.12.2018 22:54 6,2 C 97 % 1013,2 hPa 0,0 l/m 11,9 km/h (2 Bft) SW 228 0 min 0 W/m 5,8 C 2,2 C 17,7 km/h (3 Bft)
22.12.2018 22:57 6,2 C 97 % 1013,2 hPa 0,0 l/m 11,3 km/h (2 Bft) S-SW 207 0 min 0 W/m 5,8 C 2,6 C 17,7 km/h (3 Bft)
22.12.2018 23:00 6,2 C 97 % 1013,2 hPa 0,0 l/m 11,5 km/h (2 Bft) S-SW 207 0 min 0 W/m 5,8 C 2,4 C 19,3 km/h (3 Bft)
22.12.2018 23:03 6,2 C 97 % 1013,2 hPa 0,0 l/m 12,9 km/h (3 Bft) S-SW 206 0 min 0 W/m 5,8 C 1,6 C 17,7 km/h (3 Bft)
22.12.2018 23:06 6,2 C 97 % 1013,3 hPa 0,0 l/m 11,9 km/h (2 Bft) W-SW 240 0 min 0 W/m 5,8 C 2,2 C 17,7 km/h (3 Bft)
22.12.2018 23:09 6,2 C 97 % 1013,2 hPa 0,0 l/m 11,1 km/h (2 Bft) SW 231 0 min 0 W/m 5,8 C 2,7 C 17,7 km/h (3 Bft)
22.12.2018 23:12 6,3 C 97 % 1013,3 hPa 0,0 l/m 11,5 km/h (2 Bft) SW 217 0 min 0 W/m 5,9 C 2,6 C 17,7 km/h (3 Bft)
22.12.2018 23:15 6,3 C 97 % 1013,3 hPa 0,0 l/m 9,7 km/h (2 Bft) SW 220 0 min 0 W/m 5,9 C 3,7 C 14,5 km/h (3 Bft)
22.12.2018 23:18 6,3 C 97 % 1013,3 hPa 0,0 l/m 11,4 km/h (2 Bft) SW 226 0 min 0 W/m 5,9 C 2,6 C 17,7 km/h (3 Bft)
22.12.2018 23:21 6,3 C 97 % 1013,3 hPa 0,0 l/m 10,2 km/h (2 Bft) SW 229 0 min 0 W/m 5,9 C 3,4 C 17,7 km/h (3 Bft)
22.12.2018 23:24 6,3 C 97 % 1013,4 hPa 0,0 l/m 9,6 km/h (2 Bft) SW 219 0 min 0 W/m 5,9 C 3,8 C 12,9 km/h (3 Bft)
22.12.2018 23:27 6,4 C 97 % 1013,4 hPa 0,2 l/m 10,1 km/h (2 Bft) S-SW 208 0 min 0 W/m 6,0 C 3,6 C 14,5 km/h (3 Bft)
22.12.2018 23:30 6,4 C 97 % 1013,3 hPa 0,0 l/m 10,7 km/h (2 Bft) SW 217 0 min 0 W/m 6,0 C 3,2 C 19,3 km/h (3 Bft)
22.12.2018 23:33 6,5 C 97 % 1013,3 hPa 0,0 l/m 12,4 km/h (2 Bft) SW 229 0 min 0 W/m 6,1 C 2,3 C 19,3 km/h (3 Bft)
22.12.2018 23:36 6,5 C 97 % 1013,3 hPa 0,0 l/m 13,4 km/h (3 Bft) S-SW 207 0 min 0 W/m 6,1 C 1,7 C 20,9 km/h (4 Bft)
22.12.2018 23:39 6,6 C 97 % 1013,3 hPa 0,2 l/m 12,8 km/h (3 Bft) W-SW 243 0 min 0 W/m 6,2 C 2,1 C 22,5 km/h (4 Bft)
22.12.2018 23:42 6,6 C 97 % 1013,3 hPa 0,0 l/m 14,3 km/h (3 Bft) SW 227 0 min 0 W/m 6,2 C 1,4 C 20,9 km/h (4 Bft)
22.12.2018 23:45 6,6 C 97 % 1013,4 hPa 0,0 l/m 14,4 km/h (3 Bft) S-SW 205 0 min 0 W/m 6,2 C 1,3 C 20,9 km/h (4 Bft)
22.12.2018 23:48 6,6 C 97 % 1013,3 hPa 0,0 l/m 15,8 km/h (3 Bft) S-SW 211 0 min 0 W/m 6,2 C 0,6 C 22,5 km/h (4 Bft)
22.12.2018 23:51 6,6 C 97 % 1013,4 hPa 0,0 l/m 16,2 km/h (3 Bft) S-SW 196 0 min 0 W/m 6,2 C 0,5 C 25,7 km/h (4 Bft)
22.12.2018 23:54 6,6 C 97 % 1013,3 hPa 0,0 l/m 16,0 km/h (3 Bft) SW 215 0 min 0 W/m 6,2 C 0,5 C 22,5 km/h (4 Bft)
22.12.2018 23:57 6,6 C 97 % 1013,3 hPa 0,0 l/m 16,2 km/h (3 Bft) SW 216 0 min 0 W/m 6,2 C 0,5 C 25,7 km/h (4 Bft)
_ Min-Zeit 21:18 01:45 00:00 - 16:15 - - - - 04:48 00:00 16:12
Minimum _ 5,8 C 95 % 998,2 hPa - 0,3 km/h (0 Bft) - - - - 5,5 C -1,6 C 1,6 km/h (1 Bft)
_ Max-Zeit 14:24 00:00 23:24 06:09 00:00 - - 00:00 13:03 14:24 14:48 00:21
Maximum _ 7,1 C 97 % 1013,4 hPa 0,2 l/m 21,7 km/h
NW (4 Bft)
- - 0 min 86 W/m 6,7 C 7,1 C 40,2 km/h
W-NW (6 Bft)
Durchschnitt _ 6,4 C 96 % 1006,2 hPa #4,2 l/m 7,8 km/h (2 Bft) SW - #0 min. 27 W/m 5,9 C 4,7 C 13,5 km/h (3 Bft)
2018 Cux-Wetter.de -Die Nutzung der Wetterdaten nur mit ausdrcklicher Genehmigung